<?xml version='1.0' encoding='UTF-8'?>
<gpx version="1.1" creator="https://www.komoot.de" xmlns="http://www.topografix.com/GPX/1/1" xmlns:xsi="http://www.w3.org/2001/XMLSchema-instance" xsi:schemaLocation="http://www.topografix.com/GPX/1/1 http://www.topografix.com/GPX/1/1/gpx.xsd">
  <metadata>
    <name>Afsluitingsrit 2026 RACE Vlagheideberg 80km</name>
    <author>
      <link href="https://www.komoot.de">
        <text>komoot</text>
        <type>text/html</type>
      </link>
    </author>
  </metadata>
  <wpt lat="51.649860" lon="5.949002">
    <name>De Raetsingel en Burgemeester…</name>
    <desc>De Raetsingel en Burgemeester Hengstplein</desc>
    <sym>Flag, Blue</sym>
  </wpt>
  <wpt lat="51.649038" lon="5.946947">
    <name>Raadhuisplein 60</name>
    <desc>Raadhuisplein 60</desc>
    <sym>Flag, Blue</sym>
  </wpt>
  <wpt lat="51.645641" lon="5.934448">
    <name>Graafseweg</name>
    <desc>Graafseweg</desc>
    <sym>Flag, Blue</sym>
  </wpt>
  <wpt lat="51.653549" lon="5.930524">
    <name>10-20</name>
    <desc>10-20</desc>
    <sym>Flag, Blue</sym>
  </wpt>
  <wpt lat="51.658624" lon="5.908601">
    <name>Hoogeindsestraat en fietsroute</name>
    <desc>Hoogeindsestraat en fietsroute</desc>
    <sym>Flag, Blue</sym>
  </wpt>
  <wpt lat="51.645283" lon="5.890104">
    <name>Sassekamp en Ledeackersestraat</name>
    <desc>Sassekamp en Ledeackersestraat</desc>
    <sym>Flag, Blue</sym>
  </wpt>
  <wpt lat="51.640500" lon="5.878605">
    <name>fietspad1</name>
    <desc>fietspad</desc>
    <sym>Flag, Blue</sym>
  </wpt>
  <wpt lat="51.634908" lon="5.860759">
    <name>Hoenderstraat</name>
    <desc>Hoenderstraat</desc>
    <sym>Flag, Blue</sym>
  </wpt>
  <wpt lat="51.636148" lon="5.846891">
    <name>De Quayweg 4</name>
    <desc>De Quayweg 4</desc>
    <sym>Flag, Blue</sym>
  </wpt>
  <wpt lat="51.600424" lon="5.604324">
    <name>05-061</name>
    <desc>05-06</desc>
    <sym>Flag, Blue</sym>
  </wpt>
  <wpt lat="51.598320" lon="5.598320">
    <name>05-06</name>
    <desc>05-06</desc>
    <sym>Flag, Blue</sym>
  </wpt>
  <wpt lat="51.589017" lon="5.592519">
    <name>Hackerom 2</name>
    <desc>Hackerom 2</desc>
    <sym>Flag, Blue</sym>
  </wpt>
  <wpt lat="51.587555" lon="5.581421">
    <name>03-04</name>
    <desc>03-04</desc>
    <sym>Flag, Blue</sym>
  </wpt>
  <wpt lat="51.586838" lon="5.561358">
    <name>03-931</name>
    <desc>03-93</desc>
    <sym>Flag, Blue</sym>
  </wpt>
  <wpt lat="51.602858" lon="5.486850">
    <name>Village Départ</name>
    <sym>Restaurant</sym>
  </wpt>
  <wpt lat="51.615670" lon="5.508560">
    <name>2-82</name>
    <desc>2-82</desc>
    <sym>Flag, Blue</sym>
  </wpt>
  <wpt lat="51.632011" lon="5.564974">
    <name>96-97</name>
    <desc>96-97</desc>
    <sym>Flag, Blue</sym>
  </wpt>
  <wpt lat="51.636392" lon="5.568671">
    <name>Hintelstraat 20</name>
    <desc>Hintelstraat 20</desc>
    <sym>Flag, Blue</sym>
  </wpt>
  <wpt lat="51.626432" lon="5.589901">
    <name>Bolstweg 11</name>
    <desc>Bolstweg 11</desc>
    <sym>Flag, Blue</sym>
  </wpt>
  <wpt lat="51.636105" lon="5.614954">
    <name>Lage Randweg 5</name>
    <desc>Lage Randweg 5</desc>
    <sym>Flag, Blue</sym>
  </wpt>
  <wpt lat="51.641701" lon="5.649652">
    <name>Hoge Randweg 22</name>
    <desc>Hoge Randweg 22</desc>
    <sym>Flag, Blue</sym>
  </wpt>
  <wpt lat="51.664546" lon="5.831988">
    <name>09-111</name>
    <desc>09-11</desc>
    <sym>Flag, Blue</sym>
  </wpt>
  <wpt lat="51.666273" lon="5.865822">
    <name>Laageindsedijk</name>
    <desc>Laageindsedijk</desc>
    <sym>Flag, Blue</sym>
  </wpt>
  <wpt lat="51.658371" lon="5.886485">
    <name>Kapelstraat en Hoogeindsestra…</name>
    <desc>Kapelstraat en Hoogeindsestraat</desc>
    <sym>Flag, Blue</sym>
  </wpt>
  <trk>
    <name>Afsluitingsrit 2026 RACE Vlagheideberg 80km</name>
    <type>racebike</type>
    <trkseg>
      <trkpt lat="51.648913" lon="5.950966">
        <ele>13.400000</ele>
        <time>2026-08-27T10:21:23.078Z</time>
      </trkpt>
      <trkpt lat="51.648995" lon="5.950663">
        <ele>13.400000</ele>
        <time>2026-08-27T10:21:27.234Z</time>
      </trkpt>
      <trkpt lat="51.649150" lon="5.950256">
        <ele>13.400000</ele>
        <time>2026-08-27T10:21:33.138Z</time>
      </trkpt>
      <trkpt lat="51.649207" lon="5.950151">
        <ele>13.400000</ele>
        <time>2026-08-27T10:21:34.847Z</time>
      </trkpt>
      <trkpt lat="51.649779" lon="5.949156">
        <ele>13.471851</ele>
        <time>2026-08-27T10:21:51.860Z</time>
      </trkpt>
      <trkpt lat="51.649860" lon="5.949002">
        <ele>13.488824</ele>
        <time>2026-08-27T10:21:54.280Z</time>
      </trkpt>
      <trkpt lat="51.649475" lon="5.948179">
        <ele>13.575476</ele>
        <time>2026-08-27T10:22:07.476Z</time>
      </trkpt>
      <trkpt lat="51.649323" lon="5.947843">
        <ele>13.610435</ele>
        <time>2026-08-27T10:22:13.297Z</time>
      </trkpt>
      <trkpt lat="51.649358" lon="5.947632">
        <ele>13.628798</ele>
        <time>2026-08-27T10:22:16.358Z</time>
      </trkpt>
      <trkpt lat="51.649038" lon="5.946947">
        <ele>13.769580</ele>
        <time>2026-08-27T10:22:27.765Z</time>
      </trkpt>
      <trkpt lat="51.648747" lon="5.946751">
        <ele>13.863659</ele>
        <time>2026-08-27T10:22:34.143Z</time>
      </trkpt>
      <trkpt lat="51.648728" lon="5.946627">
        <ele>13.887299</ele>
        <time>2026-08-27T10:22:35.736Z</time>
      </trkpt>
      <trkpt lat="51.648783" lon="5.945906">
        <ele>14.021751</ele>
        <time>2026-08-27T10:22:45.432Z</time>
      </trkpt>
      <trkpt lat="51.648784" lon="5.945644">
        <ele>14.070244</ele>
        <time>2026-08-27T10:22:48.947Z</time>
      </trkpt>
      <trkpt lat="51.648812" lon="5.945504">
        <ele>14.097469</ele>
        <time>2026-08-27T10:22:50.419Z</time>
      </trkpt>
      <trkpt lat="51.648814" lon="5.945272">
        <ele>14.140413</ele>
        <time>2026-08-27T10:22:52.746Z</time>
      </trkpt>
      <trkpt lat="51.648852" lon="5.945109">
        <ele>14.172641</ele>
        <time>2026-08-27T10:22:54.467Z</time>
      </trkpt>
      <trkpt lat="51.648844" lon="5.944983">
        <ele>14.205431</ele>
        <time>2026-08-27T10:22:55.718Z</time>
      </trkpt>
      <trkpt lat="51.648821" lon="5.944904">
        <ele>14.231109</ele>
        <time>2026-08-27T10:22:56.587Z</time>
      </trkpt>
      <trkpt lat="51.648785" lon="5.944838">
        <ele>14.256967</ele>
        <time>2026-08-27T10:22:57.462Z</time>
      </trkpt>
      <trkpt lat="51.648720" lon="5.944777">
        <ele>14.292637</ele>
        <time>2026-08-27T10:22:58.690Z</time>
      </trkpt>
      <trkpt lat="51.648646" lon="5.944581">
        <ele>14.360148</ele>
        <time>2026-08-27T10:23:01.092Z</time>
      </trkpt>
      <trkpt lat="51.648587" lon="5.944496">
        <ele>14.397678</ele>
        <time>2026-08-27T10:23:02.427Z</time>
      </trkpt>
      <trkpt lat="51.648339" lon="5.943658">
        <ele>14.670874</ele>
        <time>2026-08-27T10:23:12.608Z</time>
      </trkpt>
      <trkpt lat="51.648147" lon="5.943018">
        <ele>14.880055</ele>
        <time>2026-08-27T10:23:20.329Z</time>
      </trkpt>
      <trkpt lat="51.647671" lon="5.941551">
        <ele>15.025669</ele>
        <time>2026-08-27T10:23:36.221Z</time>
      </trkpt>
      <trkpt lat="51.647380" lon="5.940601">
        <ele>15.018630</ele>
        <time>2026-08-27T10:23:45.448Z</time>
      </trkpt>
      <trkpt lat="51.647171" lon="5.939900">
        <ele>15.004724</ele>
        <time>2026-08-27T10:23:52.471Z</time>
      </trkpt>
      <trkpt lat="51.646621" lon="5.938209">
        <ele>14.764892</ele>
        <time>2026-08-27T10:24:09.339Z</time>
      </trkpt>
      <trkpt lat="51.646580" lon="5.938098">
        <ele>14.748665</ele>
        <time>2026-08-27T10:24:10.469Z</time>
      </trkpt>
      <trkpt lat="51.646498" lon="5.937806">
        <ele>14.708403</ele>
        <time>2026-08-27T10:24:13.228Z</time>
      </trkpt>
      <trkpt lat="51.646516" lon="5.937785">
        <ele>14.703904</ele>
        <time>2026-08-27T10:24:13.675Z</time>
      </trkpt>
      <trkpt lat="51.646473" lon="5.937594">
        <ele>14.678381</ele>
        <time>2026-08-27T10:24:16.097Z</time>
      </trkpt>
      <trkpt lat="51.646461" lon="5.937560">
        <ele>14.673467</ele>
        <time>2026-08-27T10:24:16.559Z</time>
      </trkpt>
      <trkpt lat="51.646406" lon="5.937398">
        <ele>14.650270</ele>
        <time>2026-08-27T10:24:18.751Z</time>
      </trkpt>
      <trkpt lat="51.646329" lon="5.937203">
        <ele>14.606459</ele>
        <time>2026-08-27T10:24:20.712Z</time>
      </trkpt>
      <trkpt lat="51.646281" lon="5.937164">
        <ele>14.589952</ele>
        <time>2026-08-27T10:24:21.445Z</time>
      </trkpt>
      <trkpt lat="51.646202" lon="5.936933">
        <ele>14.539695</ele>
        <time>2026-08-27T10:24:23.666Z</time>
      </trkpt>
      <trkpt lat="51.646039" lon="5.936452">
        <ele>14.435268</ele>
        <time>2026-08-27T10:24:28.228Z</time>
      </trkpt>
      <trkpt lat="51.645959" lon="5.936223">
        <ele>14.385194</ele>
        <time>2026-08-27T10:24:30.413Z</time>
      </trkpt>
      <trkpt lat="51.645944" lon="5.936030">
        <ele>14.348132</ele>
        <time>2026-08-27T10:24:32.676Z</time>
      </trkpt>
      <trkpt lat="51.645469" lon="5.934703">
        <ele>14.098143</ele>
        <time>2026-08-27T10:24:50.932Z</time>
      </trkpt>
      <trkpt lat="51.645485" lon="5.934616">
        <ele>14.098404</ele>
        <time>2026-08-27T10:24:52.022Z</time>
      </trkpt>
      <trkpt lat="51.645552" lon="5.934563">
        <ele>14.098750</ele>
        <time>2026-08-27T10:24:53.502Z</time>
      </trkpt>
      <trkpt lat="51.645581" lon="5.934471">
        <ele>14.099046</ele>
        <time>2026-08-27T10:24:54.735Z</time>
      </trkpt>
      <trkpt lat="51.645641" lon="5.934448">
        <ele>14.099332</ele>
        <time>2026-08-27T10:24:55.618Z</time>
      </trkpt>
      <trkpt lat="51.647180" lon="5.933520">
        <ele>14.125569</ele>
        <time>2026-08-27T10:25:20.328Z</time>
      </trkpt>
      <trkpt lat="51.647550" lon="5.933400">
        <ele>14.157141</ele>
        <time>2026-08-27T10:25:26.338Z</time>
      </trkpt>
      <trkpt lat="51.649380" lon="5.933260">
        <ele>14.101474</ele>
        <time>2026-08-27T10:25:53.976Z</time>
      </trkpt>
      <trkpt lat="51.650083" lon="5.933028">
        <ele>13.929612</ele>
        <time>2026-08-27T10:26:03.628Z</time>
      </trkpt>
      <trkpt lat="51.650710" lon="5.932700">
        <ele>13.766350</ele>
        <time>2026-08-27T10:26:12.472Z</time>
      </trkpt>
      <trkpt lat="51.651770" lon="5.931850">
        <ele>13.454423</ele>
        <time>2026-08-27T10:26:29.022Z</time>
      </trkpt>
      <trkpt lat="51.652139" lon="5.931537">
        <ele>13.348922</ele>
        <time>2026-08-27T10:26:34.901Z</time>
      </trkpt>
      <trkpt lat="51.652321" lon="5.931383">
        <ele>13.328024</ele>
        <time>2026-08-27T10:26:37.820Z</time>
      </trkpt>
      <trkpt lat="51.652454" lon="5.931350">
        <ele>13.314343</ele>
        <time>2026-08-27T10:26:39.731Z</time>
      </trkpt>
      <trkpt lat="51.653549" lon="5.930524">
        <ele>13.191429</ele>
        <time>2026-08-27T10:26:57.372Z</time>
      </trkpt>
      <trkpt lat="51.655925" lon="5.929193">
        <ele>12.963815</ele>
        <time>2026-08-27T10:27:33.540Z</time>
      </trkpt>
      <trkpt lat="51.656377" lon="5.928715">
        <ele>12.953965</ele>
        <time>2026-08-27T10:27:41.783Z</time>
      </trkpt>
      <trkpt lat="51.656727" lon="5.928131">
        <ele>12.944786</ele>
        <time>2026-08-27T10:27:49.464Z</time>
      </trkpt>
      <trkpt lat="51.656905" lon="5.927744">
        <ele>12.930475</ele>
        <time>2026-08-27T10:27:54.001Z</time>
      </trkpt>
      <trkpt lat="51.658407" lon="5.923299">
        <ele>12.051331</ele>
        <time>2026-08-27T10:28:37.333Z</time>
      </trkpt>
      <trkpt lat="51.658520" lon="5.922858">
        <ele>11.956055</ele>
        <time>2026-08-27T10:28:41.206Z</time>
      </trkpt>
      <trkpt lat="51.658534" lon="5.921744">
        <ele>11.976451</ele>
        <time>2026-08-27T10:28:50.768Z</time>
      </trkpt>
      <trkpt lat="51.658497" lon="5.921501">
        <ele>11.992784</ele>
        <time>2026-08-27T10:28:53.061Z</time>
      </trkpt>
      <trkpt lat="51.658494" lon="5.919515">
        <ele>12.143684</ele>
        <time>2026-08-27T10:29:13.264Z</time>
      </trkpt>
      <trkpt lat="51.658518" lon="5.915638">
        <ele>12.470113</ele>
        <time>2026-08-27T10:29:50.838Z</time>
      </trkpt>
      <trkpt lat="51.658330" lon="5.913871">
        <ele>12.375730</ele>
        <time>2026-08-27T10:30:06.127Z</time>
      </trkpt>
      <trkpt lat="51.658299" lon="5.913428">
        <ele>12.368644</ele>
        <time>2026-08-27T10:30:09.919Z</time>
      </trkpt>
      <trkpt lat="51.658297" lon="5.912706">
        <ele>12.357169</ele>
        <time>2026-08-27T10:30:16.213Z</time>
      </trkpt>
      <trkpt lat="51.658497" lon="5.910757">
        <ele>12.413486</ele>
        <time>2026-08-27T10:30:34.985Z</time>
      </trkpt>
      <trkpt lat="51.658524" lon="5.910052">
        <ele>12.570357</ele>
        <time>2026-08-27T10:30:42.369Z</time>
      </trkpt>
      <trkpt lat="51.658549" lon="5.909110">
        <ele>12.779757</ele>
        <time>2026-08-27T10:30:52.622Z</time>
      </trkpt>
      <trkpt lat="51.658617" lon="5.909001">
        <ele>12.814088</ele>
        <time>2026-08-27T10:30:54.202Z</time>
      </trkpt>
      <trkpt lat="51.658620" lon="5.908798">
        <ele>12.859185</ele>
        <time>2026-08-27T10:30:56.962Z</time>
      </trkpt>
      <trkpt lat="51.658624" lon="5.908601">
        <ele>12.902960</ele>
        <time>2026-08-27T10:30:59.610Z</time>
      </trkpt>
      <trkpt lat="51.658583" lon="5.908504">
        <ele>12.929028</ele>
        <time>2026-08-27T10:31:01.181Z</time>
      </trkpt>
      <trkpt lat="51.658570" lon="5.908192">
        <ele>12.964753</ele>
        <time>2026-08-27T10:31:05.285Z</time>
      </trkpt>
      <trkpt lat="51.658610" lon="5.906024">
        <ele>12.737609</ele>
        <time>2026-08-27T10:31:24.158Z</time>
      </trkpt>
      <trkpt lat="51.658660" lon="5.905387">
        <ele>12.670266</ele>
        <time>2026-08-27T10:31:29.474Z</time>
      </trkpt>
      <trkpt lat="51.658579" lon="5.905404">
        <ele>12.655573</ele>
        <time>2026-08-27T10:31:31.005Z</time>
      </trkpt>
      <trkpt lat="51.658505" lon="5.905406">
        <ele>12.642261</ele>
        <time>2026-08-27T10:31:32.420Z</time>
      </trkpt>
      <trkpt lat="51.655320" lon="5.904390">
        <ele>12.151355</ele>
        <time>2026-08-27T10:32:36.365Z</time>
      </trkpt>
      <trkpt lat="51.654930" lon="5.904360">
        <ele>12.142544</ele>
        <time>2026-08-27T10:32:44.205Z</time>
      </trkpt>
      <trkpt lat="51.654540" lon="5.904440">
        <ele>12.169163</ele>
        <time>2026-08-27T10:32:52.187Z</time>
      </trkpt>
      <trkpt lat="51.654190" lon="5.904620">
        <ele>12.194038</ele>
        <time>2026-08-27T10:32:59.722Z</time>
      </trkpt>
      <trkpt lat="51.652746" lon="5.905867">
        <ele>12.272633</ele>
        <time>2026-08-27T10:33:33.369Z</time>
      </trkpt>
      <trkpt lat="51.651810" lon="5.903240">
        <ele>12.320235</ele>
        <time>2026-08-27T10:34:11.314Z</time>
      </trkpt>
      <trkpt lat="51.651290" lon="5.903694">
        <ele>12.333740</ele>
        <time>2026-08-27T10:34:23.566Z</time>
      </trkpt>
      <trkpt lat="51.651148" lon="5.903730">
        <ele>12.337023</ele>
        <time>2026-08-27T10:34:26.497Z</time>
      </trkpt>
      <trkpt lat="51.651090" lon="5.903690">
        <ele>12.338464</ele>
        <time>2026-08-27T10:34:27.777Z</time>
      </trkpt>
      <trkpt lat="51.651026" lon="5.903600">
        <ele>12.340403</ele>
        <time>2026-08-27T10:34:29.503Z</time>
      </trkpt>
      <trkpt lat="51.650402" lon="5.902120">
        <ele>12.150166</ele>
        <time>2026-08-27T10:34:51.203Z</time>
      </trkpt>
      <trkpt lat="51.649500" lon="5.899930">
        <ele>11.927480</ele>
        <time>2026-08-27T10:35:22.971Z</time>
      </trkpt>
      <trkpt lat="51.646569" lon="5.893134">
        <ele>12.031552</ele>
        <time>2026-08-27T10:37:07.528Z</time>
      </trkpt>
      <trkpt lat="51.646430" lon="5.892804">
        <ele>12.053413</ele>
        <time>2026-08-27T10:37:12.610Z</time>
      </trkpt>
      <trkpt lat="51.645283" lon="5.890104">
        <ele>12.293692</ele>
        <time>2026-08-27T10:37:54.797Z</time>
      </trkpt>
      <trkpt lat="51.645100" lon="5.889590">
        <ele>12.345975</ele>
        <time>2026-08-27T10:38:02.434Z</time>
      </trkpt>
      <trkpt lat="51.645080" lon="5.889448">
        <ele>12.358822</ele>
        <time>2026-08-27T10:38:04.304Z</time>
      </trkpt>
      <trkpt lat="51.645267" lon="5.888670">
        <ele>12.432576</ele>
        <time>2026-08-27T10:38:14.962Z</time>
      </trkpt>
      <trkpt lat="51.645518" lon="5.887620">
        <ele>12.532175</ele>
        <time>2026-08-27T10:38:29.154Z</time>
      </trkpt>
      <trkpt lat="51.646298" lon="5.884332">
        <ele>12.881593</ele>
        <time>2026-08-27T10:39:15.026Z</time>
      </trkpt>
      <trkpt lat="51.646422" lon="5.883810">
        <ele>12.940491</ele>
        <time>2026-08-27T10:39:22.340Z</time>
      </trkpt>
      <trkpt lat="51.646551" lon="5.883265">
        <ele>12.980688</ele>
        <time>2026-08-27T10:39:29.772Z</time>
      </trkpt>
      <trkpt lat="51.645534" lon="5.883215">
        <ele>13.081991</ele>
        <time>2026-08-27T10:39:44.767Z</time>
      </trkpt>
      <trkpt lat="51.643499" lon="5.883151">
        <ele>13.533952</ele>
        <time>2026-08-27T10:40:27.860Z</time>
      </trkpt>
      <trkpt lat="51.643273" lon="5.882964">
        <ele>13.598265</ele>
        <time>2026-08-27T10:40:33.640Z</time>
      </trkpt>
      <trkpt lat="51.642263" lon="5.881772">
        <ele>13.755032</ele>
        <time>2026-08-27T10:41:00.546Z</time>
      </trkpt>
      <trkpt lat="51.641502" lon="5.880825">
        <ele>13.760324</ele>
        <time>2026-08-27T10:41:19.012Z</time>
      </trkpt>
      <trkpt lat="51.640500" lon="5.878605">
        <ele>13.602875</ele>
        <time>2026-08-27T10:41:52.398Z</time>
      </trkpt>
      <trkpt lat="51.639739" lon="5.876749">
        <ele>13.770979</ele>
        <time>2026-08-27T10:42:21.356Z</time>
      </trkpt>
      <trkpt lat="51.639322" lon="5.875752">
        <ele>14.098995</ele>
        <time>2026-08-27T10:42:37.533Z</time>
      </trkpt>
      <trkpt lat="51.639263" lon="5.875662">
        <ele>14.138079</ele>
        <time>2026-08-27T10:42:39.328Z</time>
      </trkpt>
      <trkpt lat="51.639275" lon="5.875483">
        <ele>14.191832</ele>
        <time>2026-08-27T10:42:41.796Z</time>
      </trkpt>
      <trkpt lat="51.638912" lon="5.874652">
        <ele>14.495229</ele>
        <time>2026-08-27T10:42:52.584Z</time>
      </trkpt>
      <trkpt lat="51.638781" lon="5.874409">
        <ele>14.591328</ele>
        <time>2026-08-27T10:42:56.113Z</time>
      </trkpt>
      <trkpt lat="51.637558" lon="5.872920">
        <ele>15.263267</ele>
        <time>2026-08-27T10:43:22.509Z</time>
      </trkpt>
      <trkpt lat="51.637148" lon="5.872115">
        <ele>15.401717</ele>
        <time>2026-08-27T10:43:32.012Z</time>
      </trkpt>
      <trkpt lat="51.637097" lon="5.872027">
        <ele>15.394053</ele>
        <time>2026-08-27T10:43:33.070Z</time>
      </trkpt>
      <trkpt lat="51.637191" lon="5.871785">
        <ele>15.375881</ele>
        <time>2026-08-27T10:43:36.523Z</time>
      </trkpt>
      <trkpt lat="51.637298" lon="5.871359">
        <ele>15.346630</ele>
        <time>2026-08-27T10:43:42.041Z</time>
      </trkpt>
      <trkpt lat="51.637416" lon="5.871004">
        <ele>15.320997</ele>
        <time>2026-08-27T10:43:46.889Z</time>
      </trkpt>
      <trkpt lat="51.637590" lon="5.870852">
        <ele>15.300698</ele>
        <time>2026-08-27T10:43:49.673Z</time>
      </trkpt>
      <trkpt lat="51.637927" lon="5.870461">
        <ele>15.258108</ele>
        <time>2026-08-27T10:43:55.589Z</time>
      </trkpt>
      <trkpt lat="51.637862" lon="5.870445">
        <ele>15.251364</ele>
        <time>2026-08-27T10:43:56.896Z</time>
      </trkpt>
      <trkpt lat="51.637839" lon="5.870376">
        <ele>15.246379</ele>
        <time>2026-08-27T10:43:57.620Z</time>
      </trkpt>
      <trkpt lat="51.637791" lon="5.870252">
        <ele>15.244893</ele>
        <time>2026-08-27T10:43:58.975Z</time>
      </trkpt>
      <trkpt lat="51.637759" lon="5.870148">
        <ele>15.245320</ele>
        <time>2026-08-27T10:44:00.051Z</time>
      </trkpt>
      <trkpt lat="51.637156" lon="5.867991">
        <ele>15.254013</ele>
        <time>2026-08-27T10:44:22.269Z</time>
      </trkpt>
      <trkpt lat="51.637052" lon="5.867722">
        <ele>15.254379</ele>
        <time>2026-08-27T10:44:25.120Z</time>
      </trkpt>
      <trkpt lat="51.636344" lon="5.866070">
        <ele>15.166154</ele>
        <time>2026-08-27T10:44:42.866Z</time>
      </trkpt>
      <trkpt lat="51.635950" lon="5.865375">
        <ele>15.129443</ele>
        <time>2026-08-27T10:44:51.466Z</time>
      </trkpt>
      <trkpt lat="51.635420" lon="5.864152">
        <ele>15.166553</ele>
        <time>2026-08-27T10:45:05.451Z</time>
      </trkpt>
      <trkpt lat="51.635314" lon="5.863736">
        <ele>15.177741</ele>
        <time>2026-08-27T10:45:09.716Z</time>
      </trkpt>
      <trkpt lat="51.634908" lon="5.860759">
        <ele>15.281786</ele>
        <time>2026-08-27T10:45:37.857Z</time>
      </trkpt>
      <trkpt lat="51.634537" lon="5.857811">
        <ele>15.564818</ele>
        <time>2026-08-27T10:46:07.038Z</time>
      </trkpt>
      <trkpt lat="51.634220" lon="5.854930">
        <ele>15.807018</ele>
        <time>2026-08-27T10:46:34.814Z</time>
      </trkpt>
      <trkpt lat="51.634122" lon="5.853911">
        <ele>15.865460</ele>
        <time>2026-08-27T10:46:44.635Z</time>
      </trkpt>
      <trkpt lat="51.634135" lon="5.853644">
        <ele>15.873910</ele>
        <time>2026-08-27T10:46:47.185Z</time>
      </trkpt>
      <trkpt lat="51.634414" lon="5.852414">
        <ele>15.915230</ele>
        <time>2026-08-27T10:46:59.540Z</time>
      </trkpt>
      <trkpt lat="51.634386" lon="5.851238">
        <ele>15.890077</ele>
        <time>2026-08-27T10:47:10.278Z</time>
      </trkpt>
      <trkpt lat="51.635850" lon="5.848590">
        <ele>15.349072</ele>
        <time>2026-08-27T10:47:40.245Z</time>
      </trkpt>
      <trkpt lat="51.635912" lon="5.848545">
        <ele>15.342474</ele>
        <time>2026-08-27T10:47:41.222Z</time>
      </trkpt>
      <trkpt lat="51.636202" lon="5.848531">
        <ele>15.314322</ele>
        <time>2026-08-27T10:47:45.459Z</time>
      </trkpt>
      <trkpt lat="51.636313" lon="5.848493">
        <ele>15.303311</ele>
        <time>2026-08-27T10:47:47.142Z</time>
      </trkpt>
      <trkpt lat="51.636443" lon="5.848409">
        <ele>15.289721</ele>
        <time>2026-08-27T10:47:49.249Z</time>
      </trkpt>
      <trkpt lat="51.636391" lon="5.848050">
        <ele>15.267520</ele>
        <time>2026-08-27T10:47:53.969Z</time>
      </trkpt>
      <trkpt lat="51.636148" lon="5.846891">
        <ele>15.259362</ele>
        <time>2026-08-27T10:48:09.865Z</time>
      </trkpt>
      <trkpt lat="51.635503" lon="5.843723">
        <ele>15.316857</ele>
        <time>2026-08-27T10:48:52.137Z</time>
      </trkpt>
      <trkpt lat="51.635428" lon="5.841476">
        <ele>15.251323</ele>
        <time>2026-08-27T10:49:19.445Z</time>
      </trkpt>
      <trkpt lat="51.635373" lon="5.840896">
        <ele>15.279715</ele>
        <time>2026-08-27T10:49:26.642Z</time>
      </trkpt>
      <trkpt lat="51.635353" lon="5.835285">
        <ele>15.944946</ele>
        <time>2026-08-27T10:50:40.278Z</time>
      </trkpt>
      <trkpt lat="51.635299" lon="5.834778">
        <ele>16.027738</ele>
        <time>2026-08-27T10:50:47.769Z</time>
      </trkpt>
      <trkpt lat="51.635365" lon="5.832984">
        <ele>16.283114</ele>
        <time>2026-08-27T10:51:11.147Z</time>
      </trkpt>
      <trkpt lat="51.635333" lon="5.832739">
        <ele>16.284632</ele>
        <time>2026-08-27T10:51:14.083Z</time>
      </trkpt>
      <trkpt lat="51.635270" lon="5.832528">
        <ele>16.286051</ele>
        <time>2026-08-27T10:51:16.822Z</time>
      </trkpt>
      <trkpt lat="51.635220" lon="5.832216">
        <ele>16.288004</ele>
        <time>2026-08-27T10:51:20.559Z</time>
      </trkpt>
      <trkpt lat="51.635120" lon="5.831768">
        <ele>16.290890</ele>
        <time>2026-08-27T10:51:26.101Z</time>
      </trkpt>
      <trkpt lat="51.634952" lon="5.831225">
        <ele>16.294567</ele>
        <time>2026-08-27T10:51:33.111Z</time>
      </trkpt>
      <trkpt lat="51.633555" lon="5.828298">
        <ele>17.566519</ele>
        <time>2026-08-27T10:52:26.124Z</time>
      </trkpt>
      <trkpt lat="51.633389" lon="5.827825">
        <ele>17.812469</ele>
        <time>2026-08-27T10:52:34.233Z</time>
      </trkpt>
      <trkpt lat="51.632230" lon="5.825468">
        <ele>18.978606</ele>
        <time>2026-08-27T10:53:17.369Z</time>
      </trkpt>
      <trkpt lat="51.631654" lon="5.824218">
        <ele>19.221576</ele>
        <time>2026-08-27T10:53:37.302Z</time>
      </trkpt>
      <trkpt lat="51.631446" lon="5.823524">
        <ele>19.343179</ele>
        <time>2026-08-27T10:53:47.038Z</time>
      </trkpt>
      <trkpt lat="51.631326" lon="5.822815">
        <ele>19.469049</ele>
        <time>2026-08-27T10:53:56.406Z</time>
      </trkpt>
      <trkpt lat="51.631292" lon="5.822298">
        <ele>19.558095</ele>
        <time>2026-08-27T10:54:03.128Z</time>
      </trkpt>
      <trkpt lat="51.631212" lon="5.821866">
        <ele>19.635310</ele>
        <time>2026-08-27T10:54:09.203Z</time>
      </trkpt>
      <trkpt lat="51.631213" lon="5.821587">
        <ele>19.683098</ele>
        <time>2026-08-27T10:54:13.080Z</time>
      </trkpt>
      <trkpt lat="51.631253" lon="5.821307">
        <ele>19.732309</ele>
        <time>2026-08-27T10:54:17.101Z</time>
      </trkpt>
      <trkpt lat="51.631198" lon="5.819830">
        <ele>19.877897</ele>
        <time>2026-08-27T10:54:37.002Z</time>
      </trkpt>
      <trkpt lat="51.631070" lon="5.819241">
        <ele>19.913264</ele>
        <time>2026-08-27T10:54:44.892Z</time>
      </trkpt>
      <trkpt lat="51.631006" lon="5.818908">
        <ele>19.933021</ele>
        <time>2026-08-27T10:54:49.197Z</time>
      </trkpt>
      <trkpt lat="51.630615" lon="5.817711">
        <ele>20.004414</ele>
        <time>2026-08-27T10:55:05.563Z</time>
      </trkpt>
      <trkpt lat="51.625158" lon="5.804262">
        <ele>20.747772</ele>
        <time>2026-08-27T10:58:30.356Z</time>
      </trkpt>
      <trkpt lat="51.623189" lon="5.799447">
        <ele>21.181940</ele>
        <time>2026-08-27T10:59:45.757Z</time>
      </trkpt>
      <trkpt lat="51.622675" lon="5.798149">
        <ele>21.130413</ele>
        <time>2026-08-27T11:00:03.847Z</time>
      </trkpt>
      <trkpt lat="51.622637" lon="5.798064">
        <ele>21.119386</ele>
        <time>2026-08-27T11:00:05.050Z</time>
      </trkpt>
      <trkpt lat="51.621319" lon="5.794835">
        <ele>20.956380</ele>
        <time>2026-08-27T11:00:52.614Z</time>
      </trkpt>
      <trkpt lat="51.621118" lon="5.794341">
        <ele>20.982341</ele>
        <time>2026-08-27T11:01:00.450Z</time>
      </trkpt>
      <trkpt lat="51.620768" lon="5.793517">
        <ele>21.044643</ele>
        <time>2026-08-27T11:01:13.875Z</time>
      </trkpt>
      <trkpt lat="51.620318" lon="5.792389">
        <ele>21.179356</ele>
        <time>2026-08-27T11:01:31.131Z</time>
      </trkpt>
      <trkpt lat="51.619995" lon="5.791584">
        <ele>21.275658</ele>
        <time>2026-08-27T11:01:43.249Z</time>
      </trkpt>
      <trkpt lat="51.619852" lon="5.791409">
        <ele>21.305404</ele>
        <time>2026-08-27T11:01:46.936Z</time>
      </trkpt>
      <trkpt lat="51.619777" lon="5.791237">
        <ele>21.334750</ele>
        <time>2026-08-27T11:01:49.611Z</time>
      </trkpt>
      <trkpt lat="51.619795" lon="5.791106">
        <ele>21.353483</ele>
        <time>2026-08-27T11:01:51.320Z</time>
      </trkpt>
      <trkpt lat="51.619772" lon="5.791021">
        <ele>21.366430</ele>
        <time>2026-08-27T11:01:52.512Z</time>
      </trkpt>
      <trkpt lat="51.618932" lon="5.788959">
        <ele>21.708219</ele>
        <time>2026-08-27T11:02:25.201Z</time>
      </trkpt>
      <trkpt lat="51.618843" lon="5.788731">
        <ele>21.716929</ele>
        <time>2026-08-27T11:02:28.805Z</time>
      </trkpt>
      <trkpt lat="51.618715" lon="5.788496">
        <ele>21.727040</ele>
        <time>2026-08-27T11:02:32.934Z</time>
      </trkpt>
      <trkpt lat="51.618626" lon="5.788212">
        <ele>21.737328</ele>
        <time>2026-08-27T11:02:37.086Z</time>
      </trkpt>
      <trkpt lat="51.618247" lon="5.787288">
        <ele>21.773145</ele>
        <time>2026-08-27T11:02:51.146Z</time>
      </trkpt>
      <trkpt lat="51.616970" lon="5.784165">
        <ele>21.577067</ele>
        <time>2026-08-27T11:03:36.432Z</time>
      </trkpt>
      <trkpt lat="51.615627" lon="5.780850">
        <ele>21.741524</ele>
        <time>2026-08-27T11:04:27.858Z</time>
      </trkpt>
      <trkpt lat="51.615716" lon="5.780818">
        <ele>21.734487</ele>
        <time>2026-08-27T11:04:29.285Z</time>
      </trkpt>
      <trkpt lat="51.613486" lon="5.771481">
        <ele>21.165602</ele>
        <time>2026-08-27T11:05:58.568Z</time>
      </trkpt>
      <trkpt lat="51.612677" lon="5.768094">
        <ele>20.700568</ele>
        <time>2026-08-27T11:06:30.370Z</time>
      </trkpt>
      <trkpt lat="51.612649" lon="5.767915">
        <ele>20.678605</ele>
        <time>2026-08-27T11:06:31.939Z</time>
      </trkpt>
      <trkpt lat="51.612636" lon="5.767838">
        <ele>20.669111</ele>
        <time>2026-08-27T11:06:32.619Z</time>
      </trkpt>
      <trkpt lat="51.612558" lon="5.767891">
        <ele>20.652890</ele>
        <time>2026-08-27T11:06:35.660Z</time>
      </trkpt>
      <trkpt lat="51.612517" lon="5.767620">
        <ele>20.619703</ele>
        <time>2026-08-27T11:06:38.967Z</time>
      </trkpt>
      <trkpt lat="51.612433" lon="5.766846">
        <ele>20.526216</ele>
        <time>2026-08-27T11:06:48.332Z</time>
      </trkpt>
      <trkpt lat="51.610855" lon="5.755528">
        <ele>20.317255</ele>
        <time>2026-08-27T11:09:13.530Z</time>
      </trkpt>
      <trkpt lat="51.610706" lon="5.754761">
        <ele>20.317969</ele>
        <time>2026-08-27T11:09:23.645Z</time>
      </trkpt>
      <trkpt lat="51.610607" lon="5.754411">
        <ele>20.316855</ele>
        <time>2026-08-27T11:09:28.543Z</time>
      </trkpt>
      <trkpt lat="51.610575" lon="5.754296">
        <ele>20.315245</ele>
        <time>2026-08-27T11:09:30.122Z</time>
      </trkpt>
      <trkpt lat="51.610377" lon="5.754043">
        <ele>20.310041</ele>
        <time>2026-08-27T11:09:35.187Z</time>
      </trkpt>
      <trkpt lat="51.610362" lon="5.753942">
        <ele>20.308714</ele>
        <time>2026-08-27T11:09:36.434Z</time>
      </trkpt>
      <trkpt lat="51.610352" lon="5.753828">
        <ele>20.307242</ele>
        <time>2026-08-27T11:09:37.877Z</time>
      </trkpt>
      <trkpt lat="51.610305" lon="5.753423">
        <ele>20.301975</ele>
        <time>2026-08-27T11:09:42.981Z</time>
      </trkpt>
      <trkpt lat="51.610522" lon="5.753260">
        <ele>20.297046</ele>
        <time>2026-08-27T11:09:47.800Z</time>
      </trkpt>
      <trkpt lat="51.610579" lon="5.753233">
        <ele>20.295823</ele>
        <time>2026-08-27T11:09:48.970Z</time>
      </trkpt>
      <trkpt lat="51.610652" lon="5.753195">
        <ele>20.294244</ele>
        <time>2026-08-27T11:09:50.509Z</time>
      </trkpt>
      <trkpt lat="51.610597" lon="5.752988">
        <ele>20.291365</ele>
        <time>2026-08-27T11:09:53.239Z</time>
      </trkpt>
      <trkpt lat="51.610495" lon="5.752602">
        <ele>20.286003</ele>
        <time>2026-08-27T11:09:58.417Z</time>
      </trkpt>
      <trkpt lat="51.610425" lon="5.752338">
        <ele>20.282333</ele>
        <time>2026-08-27T11:10:02.029Z</time>
      </trkpt>
      <trkpt lat="51.609622" lon="5.748587">
        <ele>20.737329</ele>
        <time>2026-08-27T11:10:53.740Z</time>
      </trkpt>
      <trkpt lat="51.609414" lon="5.747596">
        <ele>20.906320</ele>
        <time>2026-08-27T11:11:07.778Z</time>
      </trkpt>
      <trkpt lat="51.608943" lon="5.745372">
        <ele>21.319793</ele>
        <time>2026-08-27T11:11:38.840Z</time>
      </trkpt>
      <trkpt lat="51.608535" lon="5.743461">
        <ele>21.675220</ele>
        <time>2026-08-27T11:12:05.794Z</time>
      </trkpt>
      <trkpt lat="51.608328" lon="5.742535">
        <ele>21.828730</ele>
        <time>2026-08-27T11:12:18.918Z</time>
      </trkpt>
      <trkpt lat="51.608246" lon="5.742243">
        <ele>21.878716</ele>
        <time>2026-08-27T11:12:23.159Z</time>
      </trkpt>
      <trkpt lat="51.607469" lon="5.740263">
        <ele>22.019814</ele>
        <time>2026-08-27T11:12:53.118Z</time>
      </trkpt>
      <trkpt lat="51.607391" lon="5.740138">
        <ele>22.018163</ele>
        <time>2026-08-27T11:12:55.329Z</time>
      </trkpt>
      <trkpt lat="51.607103" lon="5.739394">
        <ele>22.009997</ele>
        <time>2026-08-27T11:13:06.225Z</time>
      </trkpt>
      <trkpt lat="51.606875" lon="5.738722">
        <ele>21.948821</ele>
        <time>2026-08-27T11:13:15.604Z</time>
      </trkpt>
      <trkpt lat="51.606663" lon="5.738177">
        <ele>21.818732</ele>
        <time>2026-08-27T11:13:23.345Z</time>
      </trkpt>
      <trkpt lat="51.606116" lon="5.736354">
        <ele>21.411632</ele>
        <time>2026-08-27T11:13:46.865Z</time>
      </trkpt>
      <trkpt lat="51.605893" lon="5.735506">
        <ele>21.269335</ele>
        <time>2026-08-27T11:13:57.669Z</time>
      </trkpt>
      <trkpt lat="51.605791" lon="5.734856">
        <ele>21.165739</ele>
        <time>2026-08-27T11:14:05.618Z</time>
      </trkpt>
      <trkpt lat="51.605779" lon="5.734748">
        <ele>21.148785</ele>
        <time>2026-08-27T11:14:06.935Z</time>
      </trkpt>
      <trkpt lat="51.605772" lon="5.734672">
        <ele>21.136913</ele>
        <time>2026-08-27T11:14:07.860Z</time>
      </trkpt>
      <trkpt lat="51.605664" lon="5.733484">
        <ele>20.984323</ele>
        <time>2026-08-27T11:14:22.679Z</time>
      </trkpt>
      <trkpt lat="51.605227" lon="5.728601">
        <ele>21.409214</ele>
        <time>2026-08-27T11:15:26.734Z</time>
      </trkpt>
      <trkpt lat="51.604569" lon="5.721259">
        <ele>21.317697</ele>
        <time>2026-08-27T11:16:59.289Z</time>
      </trkpt>
      <trkpt lat="51.604531" lon="5.721094">
        <ele>21.316135</ele>
        <time>2026-08-27T11:17:01.450Z</time>
      </trkpt>
      <trkpt lat="51.604503" lon="5.720648">
        <ele>21.312158</ele>
        <time>2026-08-27T11:17:06.976Z</time>
      </trkpt>
      <trkpt lat="51.604161" lon="5.716780">
        <ele>21.289287</ele>
        <time>2026-08-27T11:17:56.213Z</time>
      </trkpt>
      <trkpt lat="51.604151" lon="5.716667">
        <ele>21.288805</ele>
        <time>2026-08-27T11:17:57.684Z</time>
      </trkpt>
      <trkpt lat="51.604089" lon="5.716683">
        <ele>21.288378</ele>
        <time>2026-08-27T11:17:58.620Z</time>
      </trkpt>
      <trkpt lat="51.604024" lon="5.715863">
        <ele>21.228426</ele>
        <time>2026-08-27T11:18:06.196Z</time>
      </trkpt>
      <trkpt lat="51.604089" lon="5.716683">
        <ele>21.156578</ele>
        <time>2026-08-27T11:18:13.550Z</time>
      </trkpt>
      <trkpt lat="51.604151" lon="5.716667">
        <ele>21.147791</ele>
        <time>2026-08-27T11:18:14.432Z</time>
      </trkpt>
      <trkpt lat="51.604141" lon="5.716552">
        <ele>21.137699</ele>
        <time>2026-08-27T11:18:15.824Z</time>
      </trkpt>
      <trkpt lat="51.603967" lon="5.714535">
        <ele>21.012488</ele>
        <time>2026-08-27T11:18:40.378Z</time>
      </trkpt>
      <trkpt lat="51.603704" lon="5.711020">
        <ele>20.856766</ele>
        <time>2026-08-27T11:19:25.113Z</time>
      </trkpt>
      <trkpt lat="51.603444" lon="5.707513">
        <ele>20.415455</ele>
        <time>2026-08-27T11:20:07.245Z</time>
      </trkpt>
      <trkpt lat="51.603386" lon="5.707169">
        <ele>20.357489</ele>
        <time>2026-08-27T11:20:11.457Z</time>
      </trkpt>
      <trkpt lat="51.603356" lon="5.706561">
        <ele>20.298132</ele>
        <time>2026-08-27T11:20:18.806Z</time>
      </trkpt>
      <trkpt lat="51.603340" lon="5.706397">
        <ele>20.301460</ele>
        <time>2026-08-27T11:20:20.805Z</time>
      </trkpt>
      <trkpt lat="51.603273" lon="5.705724">
        <ele>20.315124</ele>
        <time>2026-08-27T11:20:29.174Z</time>
      </trkpt>
      <trkpt lat="51.602937" lon="5.702148">
        <ele>20.332889</ele>
        <time>2026-08-27T11:21:15.848Z</time>
      </trkpt>
      <trkpt lat="51.602878" lon="5.700801">
        <ele>20.294284</ele>
        <time>2026-08-27T11:21:32.162Z</time>
      </trkpt>
      <trkpt lat="51.602852" lon="5.700355">
        <ele>20.244360</ele>
        <time>2026-08-27T11:21:37.490Z</time>
      </trkpt>
      <trkpt lat="51.602873" lon="5.700186">
        <ele>20.225152</ele>
        <time>2026-08-27T11:21:39.528Z</time>
      </trkpt>
      <trkpt lat="51.602867" lon="5.699782">
        <ele>20.180114</ele>
        <time>2026-08-27T11:21:44.328Z</time>
      </trkpt>
      <trkpt lat="51.602863" lon="5.699618">
        <ele>20.161822</ele>
        <time>2026-08-27T11:21:46.281Z</time>
      </trkpt>
      <trkpt lat="51.602774" lon="5.696736">
        <ele>20.025913</ele>
        <time>2026-08-27T11:22:22.000Z</time>
      </trkpt>
      <trkpt lat="51.602823" lon="5.696101">
        <ele>20.038321</ele>
        <time>2026-08-27T11:22:30.228Z</time>
      </trkpt>
      <trkpt lat="51.603316" lon="5.693427">
        <ele>20.104410</ele>
        <time>2026-08-27T11:23:06.022Z</time>
      </trkpt>
      <trkpt lat="51.603489" lon="5.692528">
        <ele>20.128445</ele>
        <time>2026-08-27T11:23:17.859Z</time>
      </trkpt>
      <trkpt lat="51.603518" lon="5.692116">
        <ele>20.048099</ele>
        <time>2026-08-27T11:23:22.896Z</time>
      </trkpt>
      <trkpt lat="51.603464" lon="5.691314">
        <ele>19.890832</ele>
        <time>2026-08-27T11:23:32.436Z</time>
      </trkpt>
      <trkpt lat="51.603456" lon="5.691240">
        <ele>19.876189</ele>
        <time>2026-08-27T11:23:33.310Z</time>
      </trkpt>
      <trkpt lat="51.603448" lon="5.691136">
        <ele>19.855759</ele>
        <time>2026-08-27T11:23:34.536Z</time>
      </trkpt>
      <trkpt lat="51.603399" lon="5.690314">
        <ele>19.694773</ele>
        <time>2026-08-27T11:23:44.167Z</time>
      </trkpt>
      <trkpt lat="51.603331" lon="5.689407">
        <ele>19.522693</ele>
        <time>2026-08-27T11:23:54.838Z</time>
      </trkpt>
      <trkpt lat="51.603187" lon="5.687261">
        <ele>19.155519</ele>
        <time>2026-08-27T11:24:20.692Z</time>
      </trkpt>
      <trkpt lat="51.603183" lon="5.687215">
        <ele>19.147617</ele>
        <time>2026-08-27T11:24:21.267Z</time>
      </trkpt>
      <trkpt lat="51.603176" lon="5.687134">
        <ele>19.133706</ele>
        <time>2026-08-27T11:24:22.256Z</time>
      </trkpt>
      <trkpt lat="51.603160" lon="5.686948">
        <ele>19.101764</ele>
        <time>2026-08-27T11:24:24.555Z</time>
      </trkpt>
      <trkpt lat="51.603085" lon="5.686080">
        <ele>18.934463</ele>
        <time>2026-08-27T11:24:35.180Z</time>
      </trkpt>
      <trkpt lat="51.602884" lon="5.684960">
        <ele>18.705685</ele>
        <time>2026-08-27T11:24:48.972Z</time>
      </trkpt>
      <trkpt lat="51.602342" lon="5.683097">
        <ele>18.303965</ele>
        <time>2026-08-27T11:25:12.951Z</time>
      </trkpt>
      <trkpt lat="51.602320" lon="5.683023">
        <ele>18.288025</ele>
        <time>2026-08-27T11:25:13.916Z</time>
      </trkpt>
      <trkpt lat="51.602282" lon="5.682897">
        <ele>18.260811</ele>
        <time>2026-08-27T11:25:15.595Z</time>
      </trkpt>
      <trkpt lat="51.602125" lon="5.682393">
        <ele>18.151261</ele>
        <time>2026-08-27T11:25:22.325Z</time>
      </trkpt>
      <trkpt lat="51.602050" lon="5.682094">
        <ele>18.088608</ele>
        <time>2026-08-27T11:25:26.189Z</time>
      </trkpt>
      <trkpt lat="51.602033" lon="5.681974">
        <ele>18.064694</ele>
        <time>2026-08-27T11:25:27.686Z</time>
      </trkpt>
      <trkpt lat="51.602047" lon="5.681750">
        <ele>18.020952</ele>
        <time>2026-08-27T11:25:30.397Z</time>
      </trkpt>
      <trkpt lat="51.602652" lon="5.678217">
        <ele>17.500807</ele>
        <time>2026-08-27T11:26:14.674Z</time>
      </trkpt>
      <trkpt lat="51.602770" lon="5.677462">
        <ele>17.393741</ele>
        <time>2026-08-27T11:26:23.987Z</time>
      </trkpt>
      <trkpt lat="51.602802" lon="5.676819">
        <ele>17.305031</ele>
        <time>2026-08-27T11:26:31.752Z</time>
      </trkpt>
      <trkpt lat="51.602846" lon="5.675996">
        <ele>17.191433</ele>
        <time>2026-08-27T11:26:41.812Z</time>
      </trkpt>
      <trkpt lat="51.602876" lon="5.675433">
        <ele>17.136553</ele>
        <time>2026-08-27T11:26:48.567Z</time>
      </trkpt>
      <trkpt lat="51.602882" lon="5.675327">
        <ele>17.130807</ele>
        <time>2026-08-27T11:26:49.828Z</time>
      </trkpt>
      <trkpt lat="51.602886" lon="5.675158">
        <ele>17.121676</ele>
        <time>2026-08-27T11:26:51.818Z</time>
      </trkpt>
      <trkpt lat="51.602850" lon="5.674928">
        <ele>17.108870</ele>
        <time>2026-08-27T11:26:54.667Z</time>
      </trkpt>
      <trkpt lat="51.602895" lon="5.674395">
        <ele>17.079829</ele>
        <time>2026-08-27T11:26:59.586Z</time>
      </trkpt>
      <trkpt lat="51.602902" lon="5.674309">
        <ele>17.075146</ele>
        <time>2026-08-27T11:27:00.376Z</time>
      </trkpt>
      <trkpt lat="51.602905" lon="5.674285">
        <ele>17.073825</ele>
        <time>2026-08-27T11:27:00.597Z</time>
      </trkpt>
      <trkpt lat="51.602918" lon="5.674109">
        <ele>17.064256</ele>
        <time>2026-08-27T11:27:02.256Z</time>
      </trkpt>
      <trkpt lat="51.602904" lon="5.673977">
        <ele>17.057026</ele>
        <time>2026-08-27T11:27:03.476Z</time>
      </trkpt>
      <trkpt lat="51.603104" lon="5.673840">
        <ele>17.038133</ele>
        <time>2026-08-27T11:27:06.713Z</time>
      </trkpt>
      <trkpt lat="51.603198" lon="5.673776">
        <ele>17.029262</ele>
        <time>2026-08-27T11:27:08.189Z</time>
      </trkpt>
      <trkpt lat="51.603348" lon="5.673675">
        <ele>17.015129</ele>
        <time>2026-08-27T11:27:10.605Z</time>
      </trkpt>
      <trkpt lat="51.603518" lon="5.673559">
        <ele>16.999080</ele>
        <time>2026-08-27T11:27:13.402Z</time>
      </trkpt>
      <trkpt lat="51.604168" lon="5.673142">
        <ele>16.874380</ele>
        <time>2026-08-27T11:27:27.284Z</time>
      </trkpt>
      <trkpt lat="51.604788" lon="5.672719">
        <ele>16.749911</ele>
        <time>2026-08-27T11:27:40.291Z</time>
      </trkpt>
      <trkpt lat="51.605375" lon="5.672349">
        <ele>16.621361</ele>
        <time>2026-08-27T11:27:52.485Z</time>
      </trkpt>
      <trkpt lat="51.605443" lon="5.672340">
        <ele>16.603537</ele>
        <time>2026-08-27T11:27:53.813Z</time>
      </trkpt>
      <trkpt lat="51.605531" lon="5.672391">
        <ele>16.579105</ele>
        <time>2026-08-27T11:27:55.619Z</time>
      </trkpt>
      <trkpt lat="51.605995" lon="5.672807">
        <ele>16.440369</ele>
        <time>2026-08-27T11:28:05.770Z</time>
      </trkpt>
      <trkpt lat="51.606111" lon="5.672854">
        <ele>16.409121</ele>
        <time>2026-08-27T11:28:08.074Z</time>
      </trkpt>
      <trkpt lat="51.606395" lon="5.672782">
        <ele>16.334017</ele>
        <time>2026-08-27T11:28:13.654Z</time>
      </trkpt>
      <trkpt lat="51.607051" lon="5.672450">
        <ele>16.146646</ele>
        <time>2026-08-27T11:28:26.920Z</time>
      </trkpt>
      <trkpt lat="51.607175" lon="5.672370">
        <ele>16.104690</ele>
        <time>2026-08-27T11:28:28.761Z</time>
      </trkpt>
      <trkpt lat="51.607160" lon="5.672289">
        <ele>16.088203</ele>
        <time>2026-08-27T11:28:29.479Z</time>
      </trkpt>
      <trkpt lat="51.607122" lon="5.671990">
        <ele>16.028672</ele>
        <time>2026-08-27T11:28:32.096Z</time>
      </trkpt>
      <trkpt lat="51.607175" lon="5.671915">
        <ele>16.006511</ele>
        <time>2026-08-27T11:28:33.069Z</time>
      </trkpt>
      <trkpt lat="51.607221" lon="5.671639">
        <ele>15.950770</ele>
        <time>2026-08-27T11:28:35.498Z</time>
      </trkpt>
      <trkpt lat="51.607479" lon="5.671139">
        <ele>15.823970</ele>
        <time>2026-08-27T11:28:41.059Z</time>
      </trkpt>
      <trkpt lat="51.607504" lon="5.670456">
        <ele>15.690515</ele>
        <time>2026-08-27T11:28:46.916Z</time>
      </trkpt>
      <trkpt lat="51.607541" lon="5.668402">
        <ele>15.083802</ele>
        <time>2026-08-27T11:29:04.095Z</time>
      </trkpt>
      <trkpt lat="51.607587" lon="5.665979">
        <ele>14.316596</ele>
        <time>2026-08-27T11:29:23.542Z</time>
      </trkpt>
      <trkpt lat="51.607631" lon="5.663673">
        <ele>13.714224</ele>
        <time>2026-08-27T11:29:42.834Z</time>
      </trkpt>
      <trkpt lat="51.607700" lon="5.663658">
        <ele>13.700727</ele>
        <time>2026-08-27T11:29:43.824Z</time>
      </trkpt>
      <trkpt lat="51.608405" lon="5.663528">
        <ele>13.563166</ele>
        <time>2026-08-27T11:29:53.939Z</time>
      </trkpt>
      <trkpt lat="51.608793" lon="5.663476">
        <ele>13.487690</ele>
        <time>2026-08-27T11:29:59.517Z</time>
      </trkpt>
      <trkpt lat="51.608840" lon="5.662389">
        <ele>13.343756</ele>
        <time>2026-08-27T11:30:09.218Z</time>
      </trkpt>
      <trkpt lat="51.609056" lon="5.659990">
        <ele>13.032459</ele>
        <time>2026-08-27T11:30:30.155Z</time>
      </trkpt>
      <trkpt lat="51.609154" lon="5.659801">
        <ele>13.018271</ele>
        <time>2026-08-27T11:30:32.315Z</time>
      </trkpt>
      <trkpt lat="51.609186" lon="5.659668">
        <ele>13.010052</ele>
        <time>2026-08-27T11:30:33.564Z</time>
      </trkpt>
      <trkpt lat="51.609260" lon="5.659508">
        <ele>12.998556</ele>
        <time>2026-08-27T11:30:35.334Z</time>
      </trkpt>
      <trkpt lat="51.609456" lon="5.659306">
        <ele>12.976962</ele>
        <time>2026-08-27T11:30:38.673Z</time>
      </trkpt>
      <trkpt lat="51.609480" lon="5.659192">
        <ele>12.970026</ele>
        <time>2026-08-27T11:30:39.741Z</time>
      </trkpt>
      <trkpt lat="51.609487" lon="5.659079">
        <ele>12.963482</ele>
        <time>2026-08-27T11:30:40.758Z</time>
      </trkpt>
      <trkpt lat="51.609502" lon="5.659005">
        <ele>12.958996</ele>
        <time>2026-08-27T11:30:41.464Z</time>
      </trkpt>
      <trkpt lat="51.609610" lon="5.658868">
        <ele>12.946239</ele>
        <time>2026-08-27T11:30:43.448Z</time>
      </trkpt>
      <trkpt lat="51.609721" lon="5.659021">
        <ele>12.932681</ele>
        <time>2026-08-27T11:30:45.569Z</time>
      </trkpt>
      <trkpt lat="51.610358" lon="5.659294">
        <ele>12.883635</ele>
        <time>2026-08-27T11:30:55.444Z</time>
      </trkpt>
      <trkpt lat="51.610699" lon="5.659524">
        <ele>12.891426</ele>
        <time>2026-08-27T11:31:01.258Z</time>
      </trkpt>
      <trkpt lat="51.611080" lon="5.659834">
        <ele>12.900422</ele>
        <time>2026-08-27T11:31:07.787Z</time>
      </trkpt>
      <trkpt lat="51.611173" lon="5.659835">
        <ele>12.902382</ele>
        <time>2026-08-27T11:31:09.199Z</time>
      </trkpt>
      <trkpt lat="51.611277" lon="5.659776">
        <ele>12.904705</ele>
        <time>2026-08-27T11:31:10.873Z</time>
      </trkpt>
      <trkpt lat="51.611362" lon="5.659661">
        <ele>12.907045</ele>
        <time>2026-08-27T11:31:12.540Z</time>
      </trkpt>
      <trkpt lat="51.611418" lon="5.659502">
        <ele>12.909437</ele>
        <time>2026-08-27T11:31:14.254Z</time>
      </trkpt>
      <trkpt lat="51.611424" lon="5.659290">
        <ele>12.912214</ele>
        <time>2026-08-27T11:31:16.234Z</time>
      </trkpt>
      <trkpt lat="51.611310" lon="5.649980">
        <ele>11.967996</ele>
        <time>2026-08-27T11:32:38.052Z</time>
      </trkpt>
      <trkpt lat="51.610905" lon="5.646450">
        <ele>12.029396</ele>
        <time>2026-08-27T11:33:11.883Z</time>
      </trkpt>
      <trkpt lat="51.612779" lon="5.644688">
        <ele>11.825683</ele>
        <time>2026-08-27T11:33:43.069Z</time>
      </trkpt>
      <trkpt lat="51.613490" lon="5.644020">
        <ele>11.678153</ele>
        <time>2026-08-27T11:33:54.648Z</time>
      </trkpt>
      <trkpt lat="51.613147" lon="5.641878">
        <ele>11.327649</ele>
        <time>2026-08-27T11:34:13.674Z</time>
      </trkpt>
      <trkpt lat="51.612214" lon="5.636901">
        <ele>10.863769</ele>
        <time>2026-08-27T11:34:58.977Z</time>
      </trkpt>
      <trkpt lat="51.611350" lon="5.634680">
        <ele>11.226207</ele>
        <time>2026-08-27T11:35:25.686Z</time>
      </trkpt>
      <trkpt lat="51.610910" lon="5.633560">
        <ele>11.558628</ele>
        <time>2026-08-27T11:35:39.250Z</time>
      </trkpt>
      <trkpt lat="51.610850" lon="5.633270">
        <ele>11.635300</ele>
        <time>2026-08-27T11:35:42.348Z</time>
      </trkpt>
      <trkpt lat="51.610860" lon="5.633130">
        <ele>11.668109</ele>
        <time>2026-08-27T11:35:43.756Z</time>
      </trkpt>
      <trkpt lat="51.610900" lon="5.632980">
        <ele>11.688145</ele>
        <time>2026-08-27T11:35:45.382Z</time>
      </trkpt>
      <trkpt lat="51.611230" lon="5.632330">
        <ele>11.791191</ele>
        <time>2026-08-27T11:35:53.772Z</time>
      </trkpt>
      <trkpt lat="51.612400" lon="5.630210">
        <ele>11.974489</ele>
        <time>2026-08-27T11:36:20.768Z</time>
      </trkpt>
      <trkpt lat="51.612540" lon="5.629760">
        <ele>11.950080</ele>
        <time>2026-08-27T11:36:25.187Z</time>
      </trkpt>
      <trkpt lat="51.612580" lon="5.629380">
        <ele>11.931388</ele>
        <time>2026-08-27T11:36:28.556Z</time>
      </trkpt>
      <trkpt lat="51.612550" lon="5.629050">
        <ele>11.915214</ele>
        <time>2026-08-27T11:36:31.463Z</time>
      </trkpt>
      <trkpt lat="51.612430" lon="5.628770">
        <ele>11.898715</ele>
        <time>2026-08-27T11:36:34.416Z</time>
      </trkpt>
      <trkpt lat="51.609100" lon="5.623770">
        <ele>11.343926</ele>
        <time>2026-08-27T11:37:39.917Z</time>
      </trkpt>
      <trkpt lat="51.608920" lon="5.623430">
        <ele>11.292807</ele>
        <time>2026-08-27T11:37:43.797Z</time>
      </trkpt>
      <trkpt lat="51.608716" lon="5.622965">
        <ele>11.227667</ele>
        <time>2026-08-27T11:37:48.756Z</time>
      </trkpt>
      <trkpt lat="51.608240" lon="5.621920">
        <ele>11.147107</ele>
        <time>2026-08-27T11:38:00.207Z</time>
      </trkpt>
      <trkpt lat="51.607943" lon="5.621449">
        <ele>11.148242</ele>
        <time>2026-08-27T11:38:06.124Z</time>
      </trkpt>
      <trkpt lat="51.608070" lon="5.621013">
        <ele>11.149056</ele>
        <time>2026-08-27T11:38:10.552Z</time>
      </trkpt>
      <trkpt lat="51.608250" lon="5.620225">
        <ele>11.150476</ele>
        <time>2026-08-27T11:38:18.737Z</time>
      </trkpt>
      <trkpt lat="51.607782" lon="5.619852">
        <ele>11.205755</ele>
        <time>2026-08-27T11:38:26.917Z</time>
      </trkpt>
      <trkpt lat="51.607580" lon="5.619634">
        <ele>11.246947</ele>
        <time>2026-08-27T11:38:30.692Z</time>
      </trkpt>
      <trkpt lat="51.606200" lon="5.618040">
        <ele>11.517558</ele>
        <time>2026-08-27T11:38:56.865Z</time>
      </trkpt>
      <trkpt lat="51.606000" lon="5.617760">
        <ele>11.552739</ele>
        <time>2026-08-27T11:39:00.909Z</time>
      </trkpt>
      <trkpt lat="51.605560" lon="5.617050">
        <ele>11.635429</ele>
        <time>2026-08-27T11:39:10.474Z</time>
      </trkpt>
      <trkpt lat="51.605320" lon="5.616560">
        <ele>11.686877</ele>
        <time>2026-08-27T11:39:16.467Z</time>
      </trkpt>
      <trkpt lat="51.603870" lon="5.613280">
        <ele>11.830440</ele>
        <time>2026-08-27T11:39:54.681Z</time>
      </trkpt>
      <trkpt lat="51.603730" lon="5.612920">
        <ele>11.796393</ele>
        <time>2026-08-27T11:39:58.416Z</time>
      </trkpt>
      <trkpt lat="51.603472" lon="5.612134">
        <ele>11.725132</ele>
        <time>2026-08-27T11:40:06.156Z</time>
      </trkpt>
      <trkpt lat="51.603598" lon="5.612018">
        <ele>11.706400</ele>
        <time>2026-08-27T11:40:08.152Z</time>
      </trkpt>
      <trkpt lat="51.603692" lon="5.611778">
        <ele>11.683656</ele>
        <time>2026-08-27T11:40:10.559Z</time>
      </trkpt>
      <trkpt lat="51.603711" lon="5.611623">
        <ele>11.665629</ele>
        <time>2026-08-27T11:40:11.884Z</time>
      </trkpt>
      <trkpt lat="51.603700" lon="5.611317">
        <ele>11.628550</ele>
        <time>2026-08-27T11:40:14.458Z</time>
      </trkpt>
      <trkpt lat="51.603676" lon="5.609940">
        <ele>11.461907</ele>
        <time>2026-08-27T11:40:26.146Z</time>
      </trkpt>
      <trkpt lat="51.603666" lon="5.609371">
        <ele>11.393047</ele>
        <time>2026-08-27T11:40:31.355Z</time>
      </trkpt>
      <trkpt lat="51.603663" lon="5.609126">
        <ele>11.363403</ele>
        <time>2026-08-27T11:40:34.423Z</time>
      </trkpt>
      <trkpt lat="51.603571" lon="5.608785">
        <ele>11.333710</ele>
        <time>2026-08-27T11:40:39.115Z</time>
      </trkpt>
      <trkpt lat="51.603535" lon="5.608663">
        <ele>11.336919</ele>
        <time>2026-08-27T11:40:40.864Z</time>
      </trkpt>
      <trkpt lat="51.603293" lon="5.607850">
        <ele>11.358337</ele>
        <time>2026-08-27T11:40:52.464Z</time>
      </trkpt>
      <trkpt lat="51.602965" lon="5.606931">
        <ele>11.383518</ele>
        <time>2026-08-27T11:41:06.027Z</time>
      </trkpt>
      <trkpt lat="51.602799" lon="5.606470">
        <ele>11.396177</ele>
        <time>2026-08-27T11:41:12.659Z</time>
      </trkpt>
      <trkpt lat="51.602666" lon="5.606078">
        <ele>11.399648</ele>
        <time>2026-08-27T11:41:18.220Z</time>
      </trkpt>
      <trkpt lat="51.602350" lon="5.605680">
        <ele>11.398854</ele>
        <time>2026-08-27T11:41:26.303Z</time>
      </trkpt>
      <trkpt lat="51.602260" lon="5.605480">
        <ele>11.398550</ele>
        <time>2026-08-27T11:41:29.404Z</time>
      </trkpt>
      <trkpt lat="51.602166" lon="5.605141">
        <ele>11.398094</ele>
        <time>2026-08-27T11:41:34.089Z</time>
      </trkpt>
      <trkpt lat="51.601920" lon="5.604203">
        <ele>11.396841</ele>
        <time>2026-08-27T11:41:46.958Z</time>
      </trkpt>
      <trkpt lat="51.601227" lon="5.604935">
        <ele>11.326329</ele>
        <time>2026-08-27T11:42:03.549Z</time>
      </trkpt>
      <trkpt lat="51.600740" lon="5.604410">
        <ele>11.260616</ele>
        <time>2026-08-27T11:42:15.043Z</time>
      </trkpt>
      <trkpt lat="51.600611" lon="5.604337">
        <ele>11.245286</ele>
        <time>2026-08-27T11:42:17.700Z</time>
      </trkpt>
      <trkpt lat="51.600424" lon="5.604324">
        <ele>11.224300</ele>
        <time>2026-08-27T11:42:21.358Z</time>
      </trkpt>
      <trkpt lat="51.600312" lon="5.603907">
        <ele>11.189776</ele>
        <time>2026-08-27T11:42:26.810Z</time>
      </trkpt>
      <trkpt lat="51.600349" lon="5.603341">
        <ele>11.096104</ele>
        <time>2026-08-27T11:42:33.759Z</time>
      </trkpt>
      <trkpt lat="51.600170" lon="5.602690">
        <ele>10.978927</ele>
        <time>2026-08-27T11:42:42.590Z</time>
      </trkpt>
      <trkpt lat="51.599793" lon="5.602278">
        <ele>10.858188</ele>
        <time>2026-08-27T11:42:51.331Z</time>
      </trkpt>
      <trkpt lat="51.599720" lon="5.602050">
        <ele>10.815969</ele>
        <time>2026-08-27T11:42:54.339Z</time>
      </trkpt>
      <trkpt lat="51.599626" lon="5.601627">
        <ele>10.742025</ele>
        <time>2026-08-27T11:42:59.599Z</time>
      </trkpt>
      <trkpt lat="51.599528" lon="5.601350">
        <ele>10.675824</ele>
        <time>2026-08-27T11:43:03.300Z</time>
      </trkpt>
      <trkpt lat="51.599402" lon="5.601178">
        <ele>10.611043</ele>
        <time>2026-08-27T11:43:06.390Z</time>
      </trkpt>
      <trkpt lat="51.599155" lon="5.600877">
        <ele>10.489566</ele>
        <time>2026-08-27T11:43:10.526Z</time>
      </trkpt>
      <trkpt lat="51.599070" lon="5.600770">
        <ele>10.447255</ele>
        <time>2026-08-27T11:43:11.961Z</time>
      </trkpt>
      <trkpt lat="51.598611" lon="5.600178">
        <ele>10.216625</ele>
        <time>2026-08-27T11:43:19.739Z</time>
      </trkpt>
      <trkpt lat="51.598548" lon="5.600037">
        <ele>10.174318</ele>
        <time>2026-08-27T11:43:21.180Z</time>
      </trkpt>
      <trkpt lat="51.598466" lon="5.599675">
        <ele>10.080461</ele>
        <time>2026-08-27T11:43:24.392Z</time>
      </trkpt>
      <trkpt lat="51.598370" lon="5.598630">
        <ele>9.995452</ele>
        <time>2026-08-27T11:43:33.772Z</time>
      </trkpt>
      <trkpt lat="51.598320" lon="5.598320">
        <ele>9.988293</ele>
        <time>2026-08-27T11:43:36.736Z</time>
      </trkpt>
      <trkpt lat="51.598180" lon="5.597960">
        <ele>9.978799</ele>
        <time>2026-08-27T11:43:40.670Z</time>
      </trkpt>
      <trkpt lat="51.597800" lon="5.597190">
        <ele>9.956817</ele>
        <time>2026-08-27T11:43:49.901Z</time>
      </trkpt>
      <trkpt lat="51.597609" lon="5.597314">
        <ele>9.949406</ele>
        <time>2026-08-27T11:43:53.069Z</time>
      </trkpt>
      <trkpt lat="51.597539" lon="5.597314">
        <ele>9.947239</ele>
        <time>2026-08-27T11:43:54.151Z</time>
      </trkpt>
      <trkpt lat="51.595450" lon="5.596330">
        <ele>9.850572</ele>
        <time>2026-08-27T11:44:26.004Z</time>
      </trkpt>
      <trkpt lat="51.595170" lon="5.596240">
        <ele>9.815253</ele>
        <time>2026-08-27T11:44:30.083Z</time>
      </trkpt>
      <trkpt lat="51.593372" lon="5.596020">
        <ele>9.815773</ele>
        <time>2026-08-27T11:44:55.895Z</time>
      </trkpt>
      <trkpt lat="51.593166" lon="5.595996">
        <ele>9.855928</ele>
        <time>2026-08-27T11:44:59.173Z</time>
      </trkpt>
      <trkpt lat="51.593089" lon="5.596013">
        <ele>9.871039</ele>
        <time>2026-08-27T11:45:00.454Z</time>
      </trkpt>
      <trkpt lat="51.592856" lon="5.596056">
        <ele>9.916636</ele>
        <time>2026-08-27T11:45:04.287Z</time>
      </trkpt>
      <trkpt lat="51.592682" lon="5.596081">
        <ele>9.950599</ele>
        <time>2026-08-27T11:45:07.180Z</time>
      </trkpt>
      <trkpt lat="51.592464" lon="5.596119">
        <ele>9.993231</ele>
        <time>2026-08-27T11:45:10.853Z</time>
      </trkpt>
      <trkpt lat="51.592318" lon="5.596106">
        <ele>10.021660</ele>
        <time>2026-08-27T11:45:13.288Z</time>
      </trkpt>
      <trkpt lat="51.592098" lon="5.596015">
        <ele>10.078642</ele>
        <time>2026-08-27T11:45:17.106Z</time>
      </trkpt>
      <trkpt lat="51.591975" lon="5.595917">
        <ele>10.114573</ele>
        <time>2026-08-27T11:45:19.503Z</time>
      </trkpt>
      <trkpt lat="51.591752" lon="5.595616">
        <ele>10.190765</ele>
        <time>2026-08-27T11:45:24.498Z</time>
      </trkpt>
      <trkpt lat="51.591659" lon="5.595430">
        <ele>10.229599</ele>
        <time>2026-08-27T11:45:27.028Z</time>
      </trkpt>
      <trkpt lat="51.591596" lon="5.595205">
        <ele>10.269740</ele>
        <time>2026-08-27T11:45:29.593Z</time>
      </trkpt>
      <trkpt lat="51.591213" lon="5.592851">
        <ele>10.446370</ele>
        <time>2026-08-27T11:45:52.024Z</time>
      </trkpt>
      <trkpt lat="51.591104" lon="5.592536">
        <ele>10.427498</ele>
        <time>2026-08-27T11:45:55.160Z</time>
      </trkpt>
      <trkpt lat="51.590928" lon="5.592252">
        <ele>10.406503</ele>
        <time>2026-08-27T11:45:58.670Z</time>
      </trkpt>
      <trkpt lat="51.590736" lon="5.592080">
        <ele>10.387991</ele>
        <time>2026-08-27T11:46:01.792Z</time>
      </trkpt>
      <trkpt lat="51.590493" lon="5.592003">
        <ele>10.367126</ele>
        <time>2026-08-27T11:46:05.339Z</time>
      </trkpt>
      <trkpt lat="51.590367" lon="5.592003">
        <ele>10.356511</ele>
        <time>2026-08-27T11:46:07.153Z</time>
      </trkpt>
      <trkpt lat="51.590086" lon="5.592091">
        <ele>10.353321</ele>
        <time>2026-08-27T11:46:11.325Z</time>
      </trkpt>
      <trkpt lat="51.589017" lon="5.592519">
        <ele>10.383423</ele>
        <time>2026-08-27T11:46:33.902Z</time>
      </trkpt>
      <trkpt lat="51.588900" lon="5.591521">
        <ele>10.417026</ele>
        <time>2026-08-27T11:46:43.323Z</time>
      </trkpt>
      <trkpt lat="51.588831" lon="5.590661">
        <ele>10.504294</ele>
        <time>2026-08-27T11:46:51.195Z</time>
      </trkpt>
      <trkpt lat="51.588797" lon="5.590536">
        <ele>10.518026</ele>
        <time>2026-08-27T11:46:52.458Z</time>
      </trkpt>
      <trkpt lat="51.588474" lon="5.589799">
        <ele>10.608794</ele>
        <time>2026-08-27T11:47:01.135Z</time>
      </trkpt>
      <trkpt lat="51.588351" lon="5.589404">
        <ele>10.653260</ele>
        <time>2026-08-27T11:47:05.603Z</time>
      </trkpt>
      <trkpt lat="51.588079" lon="5.588122">
        <ele>10.838518</ele>
        <time>2026-08-27T11:47:19.441Z</time>
      </trkpt>
      <trkpt lat="51.588044" lon="5.587863">
        <ele>10.878126</ele>
        <time>2026-08-27T11:47:22.106Z</time>
      </trkpt>
      <trkpt lat="51.588017" lon="5.587579">
        <ele>10.921059</ele>
        <time>2026-08-27T11:47:25.034Z</time>
      </trkpt>
      <trkpt lat="51.587938" lon="5.586738">
        <ele>11.048162</ele>
        <time>2026-08-27T11:47:33.506Z</time>
      </trkpt>
      <trkpt lat="51.587912" lon="5.586175">
        <ele>11.112017</ele>
        <time>2026-08-27T11:47:38.683Z</time>
      </trkpt>
      <trkpt lat="51.587895" lon="5.585668">
        <ele>11.049375</ele>
        <time>2026-08-27T11:47:43.156Z</time>
      </trkpt>
      <trkpt lat="51.587894" lon="5.585604">
        <ele>11.041477</ele>
        <time>2026-08-27T11:47:43.718Z</time>
      </trkpt>
      <trkpt lat="51.587885" lon="5.585105">
        <ele>10.979887</ele>
        <time>2026-08-27T11:47:48.063Z</time>
      </trkpt>
      <trkpt lat="51.587863" lon="5.584626">
        <ele>10.920630</ele>
        <time>2026-08-27T11:47:52.267Z</time>
      </trkpt>
      <trkpt lat="51.587892" lon="5.583417">
        <ele>10.771360</ele>
        <time>2026-08-27T11:48:02.632Z</time>
      </trkpt>
      <trkpt lat="51.587881" lon="5.582980">
        <ele>10.697797</ele>
        <time>2026-08-27T11:48:06.315Z</time>
      </trkpt>
      <trkpt lat="51.587838" lon="5.582684">
        <ele>10.644562</ele>
        <time>2026-08-27T11:48:08.914Z</time>
      </trkpt>
      <trkpt lat="51.587555" lon="5.581421">
        <ele>10.409434</ele>
        <time>2026-08-27T11:48:20.408Z</time>
      </trkpt>
      <trkpt lat="51.587482" lon="5.581053">
        <ele>10.341782</ele>
        <time>2026-08-27T11:48:23.732Z</time>
      </trkpt>
      <trkpt lat="51.587493" lon="5.580955">
        <ele>10.324342</ele>
        <time>2026-08-27T11:48:24.927Z</time>
      </trkpt>
      <trkpt lat="51.587176" lon="5.579649">
        <ele>10.182105</ele>
        <time>2026-08-27T11:48:41.990Z</time>
      </trkpt>
      <trkpt lat="51.587112" lon="5.579380">
        <ele>10.160878</ele>
        <time>2026-08-27T11:48:45.551Z</time>
      </trkpt>
      <trkpt lat="51.586878" lon="5.578410">
        <ele>10.084195</ele>
        <time>2026-08-27T11:48:58.462Z</time>
      </trkpt>
      <trkpt lat="51.586774" lon="5.578117">
        <ele>10.059328</ele>
        <time>2026-08-27T11:49:02.655Z</time>
      </trkpt>
      <trkpt lat="51.585815" lon="5.576106">
        <ele>9.860652</ele>
        <time>2026-08-27T11:49:33.597Z</time>
      </trkpt>
      <trkpt lat="51.585763" lon="5.576085">
        <ele>9.853853</ele>
        <time>2026-08-27T11:49:34.677Z</time>
      </trkpt>
      <trkpt lat="51.585734" lon="5.575651">
        <ele>9.819458</ele>
        <time>2026-08-27T11:49:38.691Z</time>
      </trkpt>
      <trkpt lat="51.585686" lon="5.575461">
        <ele>9.817958</ele>
        <time>2026-08-27T11:49:40.627Z</time>
      </trkpt>
      <trkpt lat="51.585528" lon="5.575324">
        <ele>9.822029</ele>
        <time>2026-08-27T11:49:43.325Z</time>
      </trkpt>
      <trkpt lat="51.585438" lon="5.575210">
        <ele>9.824628</ele>
        <time>2026-08-27T11:49:45.029Z</time>
      </trkpt>
      <trkpt lat="51.585421" lon="5.575185">
        <ele>9.825150</ele>
        <time>2026-08-27T11:49:45.364Z</time>
      </trkpt>
      <trkpt lat="51.585298" lon="5.575011">
        <ele>9.828865</ele>
        <time>2026-08-27T11:49:47.763Z</time>
      </trkpt>
      <trkpt lat="51.585219" lon="5.574901">
        <ele>9.831235</ele>
        <time>2026-08-27T11:49:49.312Z</time>
      </trkpt>
      <trkpt lat="51.584845" lon="5.574443">
        <ele>9.841897</ele>
        <time>2026-08-27T11:49:56.238Z</time>
      </trkpt>
      <trkpt lat="51.584460" lon="5.573970">
        <ele>9.852885</ele>
        <time>2026-08-27T11:50:03.658Z</time>
      </trkpt>
      <trkpt lat="51.584261" lon="5.573698">
        <ele>9.856727</ele>
        <time>2026-08-27T11:50:07.647Z</time>
      </trkpt>
      <trkpt lat="51.584226" lon="5.573516">
        <ele>9.856951</ele>
        <time>2026-08-27T11:50:09.401Z</time>
      </trkpt>
      <trkpt lat="51.584240" lon="5.572210">
        <ele>9.858484</ele>
        <time>2026-08-27T11:50:21.179Z</time>
      </trkpt>
      <trkpt lat="51.584300" lon="5.570280">
        <ele>9.804604</ele>
        <time>2026-08-27T11:50:39.347Z</time>
      </trkpt>
      <trkpt lat="51.584290" lon="5.569710">
        <ele>9.759239</ele>
        <time>2026-08-27T11:50:44.580Z</time>
      </trkpt>
      <trkpt lat="51.584480" lon="5.569590">
        <ele>9.733107</ele>
        <time>2026-08-27T11:50:47.551Z</time>
      </trkpt>
      <trkpt lat="51.584590" lon="5.569400">
        <ele>9.712447</ele>
        <time>2026-08-27T11:50:49.880Z</time>
      </trkpt>
      <trkpt lat="51.585230" lon="5.566830">
        <ele>9.227103</ele>
        <time>2026-08-27T11:51:12.996Z</time>
      </trkpt>
      <trkpt lat="51.585410" lon="5.566290">
        <ele>9.084346</ele>
        <time>2026-08-27T11:51:17.996Z</time>
      </trkpt>
      <trkpt lat="51.585770" lon="5.565340">
        <ele>9.053103</ele>
        <time>2026-08-27T11:51:27.739Z</time>
      </trkpt>
      <trkpt lat="51.586605" lon="5.563434">
        <ele>9.461322</ele>
        <time>2026-08-27T11:51:51.799Z</time>
      </trkpt>
      <trkpt lat="51.586785" lon="5.562608">
        <ele>9.541642</ele>
        <time>2026-08-27T11:52:00.691Z</time>
      </trkpt>
      <trkpt lat="51.586827" lon="5.562139">
        <ele>9.584946</ele>
        <time>2026-08-27T11:52:05.289Z</time>
      </trkpt>
      <trkpt lat="51.586838" lon="5.561358">
        <ele>9.656338</ele>
        <time>2026-08-27T11:52:12.586Z</time>
      </trkpt>
      <trkpt lat="51.587272" lon="5.558242">
        <ele>9.768384</ele>
        <time>2026-08-27T11:52:42.310Z</time>
      </trkpt>
      <trkpt lat="51.587742" lon="5.554864">
        <ele>9.668568</ele>
        <time>2026-08-27T11:53:13.631Z</time>
      </trkpt>
      <trkpt lat="51.587753" lon="5.554404">
        <ele>9.650179</ele>
        <time>2026-08-27T11:53:17.749Z</time>
      </trkpt>
      <trkpt lat="51.587650" lon="5.553983">
        <ele>9.632104</ele>
        <time>2026-08-27T11:53:21.799Z</time>
      </trkpt>
      <trkpt lat="51.586577" lon="5.549976">
        <ele>9.539308</ele>
        <time>2026-08-27T11:54:01.670Z</time>
      </trkpt>
      <trkpt lat="51.585657" lon="5.546550">
        <ele>9.661439</ele>
        <time>2026-08-27T11:54:36.836Z</time>
      </trkpt>
      <trkpt lat="51.585634" lon="5.546472">
        <ele>9.660873</ele>
        <time>2026-08-27T11:54:37.918Z</time>
      </trkpt>
      <trkpt lat="51.588114" lon="5.544717">
        <ele>9.696279</ele>
        <time>2026-08-27T11:55:32.297Z</time>
      </trkpt>
      <trkpt lat="51.588507" lon="5.544467">
        <ele>9.713878</ele>
        <time>2026-08-27T11:55:41.092Z</time>
      </trkpt>
      <trkpt lat="51.589636" lon="5.543596">
        <ele>9.836702</ele>
        <time>2026-08-27T11:56:07.218Z</time>
      </trkpt>
      <trkpt lat="51.589982" lon="5.543398">
        <ele>9.875559</ele>
        <time>2026-08-27T11:56:14.802Z</time>
      </trkpt>
      <trkpt lat="51.590070" lon="5.543392">
        <ele>9.884879</ele>
        <time>2026-08-27T11:56:16.626Z</time>
      </trkpt>
      <trkpt lat="51.590230" lon="5.543309">
        <ele>9.902667</ele>
        <time>2026-08-27T11:56:20.075Z</time>
      </trkpt>
      <trkpt lat="51.590796" lon="5.542887">
        <ele>9.848383</ele>
        <time>2026-08-27T11:56:32.457Z</time>
      </trkpt>
      <trkpt lat="51.590877" lon="5.542722">
        <ele>9.833636</ele>
        <time>2026-08-27T11:56:34.987Z</time>
      </trkpt>
      <trkpt lat="51.590878" lon="5.542561">
        <ele>9.822345</ele>
        <time>2026-08-27T11:56:36.947Z</time>
      </trkpt>
      <trkpt lat="51.590440" lon="5.540936">
        <ele>9.705454</ele>
        <time>2026-08-27T11:56:58.547Z</time>
      </trkpt>
      <trkpt lat="51.590418" lon="5.540852">
        <ele>9.704083</ele>
        <time>2026-08-27T11:56:59.666Z</time>
      </trkpt>
      <trkpt lat="51.590041" lon="5.539448">
        <ele>9.681089</ele>
        <time>2026-08-27T11:57:18.738Z</time>
      </trkpt>
      <trkpt lat="51.590020" lon="5.539367">
        <ele>9.679769</ele>
        <time>2026-08-27T11:57:19.816Z</time>
      </trkpt>
      <trkpt lat="51.589691" lon="5.538112">
        <ele>9.664849</ele>
        <time>2026-08-27T11:57:37.151Z</time>
      </trkpt>
      <trkpt lat="51.589659" lon="5.537691">
        <ele>9.666116</ele>
        <time>2026-08-27T11:57:42.493Z</time>
      </trkpt>
      <trkpt lat="51.589666" lon="5.537544">
        <ele>9.666556</ele>
        <time>2026-08-27T11:57:44.341Z</time>
      </trkpt>
      <trkpt lat="51.589858" lon="5.537029">
        <ele>9.668350</ele>
        <time>2026-08-27T11:57:51.822Z</time>
      </trkpt>
      <trkpt lat="51.590627" lon="5.536016">
        <ele>9.664694</ele>
        <time>2026-08-27T11:58:11.908Z</time>
      </trkpt>
      <trkpt lat="51.591106" lon="5.535439">
        <ele>9.623692</ele>
        <time>2026-08-27T11:58:23.858Z</time>
      </trkpt>
      <trkpt lat="51.592710" lon="5.533156">
        <ele>9.570064</ele>
        <time>2026-08-27T11:59:06.613Z</time>
      </trkpt>
      <trkpt lat="51.592985" lon="5.532716">
        <ele>9.577686</ele>
        <time>2026-08-27T11:59:14.413Z</time>
      </trkpt>
      <trkpt lat="51.593327" lon="5.532090">
        <ele>9.596474</ele>
        <time>2026-08-27T11:59:25.268Z</time>
      </trkpt>
      <trkpt lat="51.593627" lon="5.531440">
        <ele>9.632968</ele>
        <time>2026-08-27T11:59:36.104Z</time>
      </trkpt>
      <trkpt lat="51.594011" lon="5.530412">
        <ele>9.687027</ele>
        <time>2026-08-27T11:59:51.495Z</time>
      </trkpt>
      <trkpt lat="51.594714" lon="5.528794">
        <ele>9.585451</ele>
        <time>2026-08-27T12:00:15.545Z</time>
      </trkpt>
      <trkpt lat="51.595765" lon="5.526500">
        <ele>9.373639</ele>
        <time>2026-08-27T12:00:50.133Z</time>
      </trkpt>
      <trkpt lat="51.595926" lon="5.526067">
        <ele>9.349119</ele>
        <time>2026-08-27T12:00:56.170Z</time>
      </trkpt>
      <trkpt lat="51.596412" lon="5.524952">
        <ele>9.329953</ele>
        <time>2026-08-27T12:01:13.410Z</time>
      </trkpt>
      <trkpt lat="51.596666" lon="5.524216">
        <ele>9.432055</ele>
        <time>2026-08-27T12:01:24.579Z</time>
      </trkpt>
      <trkpt lat="51.596725" lon="5.524072">
        <ele>9.452974</ele>
        <time>2026-08-27T12:01:26.883Z</time>
      </trkpt>
      <trkpt lat="51.596808" lon="5.523912">
        <ele>9.478253</ele>
        <time>2026-08-27T12:01:29.656Z</time>
      </trkpt>
      <trkpt lat="51.596913" lon="5.523836">
        <ele>9.500727</ele>
        <time>2026-08-27T12:01:32.091Z</time>
      </trkpt>
      <trkpt lat="51.597134" lon="5.523325">
        <ele>9.576234</ele>
        <time>2026-08-27T12:01:40.278Z</time>
      </trkpt>
      <trkpt lat="51.597359" lon="5.522594">
        <ele>9.623423</ele>
        <time>2026-08-27T12:01:51.188Z</time>
      </trkpt>
      <trkpt lat="51.598314" lon="5.520244">
        <ele>9.330050</ele>
        <time>2026-08-27T12:02:24.635Z</time>
      </trkpt>
      <trkpt lat="51.598876" lon="5.518872">
        <ele>9.194228</ele>
        <time>2026-08-27T12:02:44.769Z</time>
      </trkpt>
      <trkpt lat="51.599052" lon="5.518363">
        <ele>9.146084</ele>
        <time>2026-08-27T12:02:51.957Z</time>
      </trkpt>
      <trkpt lat="51.599056" lon="5.518206">
        <ele>9.133098</ele>
        <time>2026-08-27T12:02:53.362Z</time>
      </trkpt>
      <trkpt lat="51.599006" lon="5.517950">
        <ele>9.110920</ele>
        <time>2026-08-27T12:02:55.772Z</time>
      </trkpt>
      <trkpt lat="51.598536" lon="5.517211">
        <ele>9.158495</ele>
        <time>2026-08-27T12:03:05.691Z</time>
      </trkpt>
      <trkpt lat="51.598262" lon="5.516871">
        <ele>9.191246</ele>
        <time>2026-08-27T12:03:10.935Z</time>
      </trkpt>
      <trkpt lat="51.598246" lon="5.516839">
        <ele>9.193661</ele>
        <time>2026-08-27T12:03:11.320Z</time>
      </trkpt>
      <trkpt lat="51.598276" lon="5.516732">
        <ele>9.200565</ele>
        <time>2026-08-27T12:03:12.438Z</time>
      </trkpt>
      <trkpt lat="51.598327" lon="5.516616">
        <ele>9.208922</ele>
        <time>2026-08-27T12:03:13.763Z</time>
      </trkpt>
      <trkpt lat="51.598359" lon="5.516521">
        <ele>9.215277</ele>
        <time>2026-08-27T12:03:14.801Z</time>
      </trkpt>
      <trkpt lat="51.598330" lon="5.516429">
        <ele>9.221344</ele>
        <time>2026-08-27T12:03:15.783Z</time>
      </trkpt>
      <trkpt lat="51.597644" lon="5.515735">
        <ele>9.288005</ele>
        <time>2026-08-27T12:03:28.409Z</time>
      </trkpt>
      <trkpt lat="51.597598" lon="5.515644">
        <ele>9.292176</ele>
        <time>2026-08-27T12:03:29.570Z</time>
      </trkpt>
      <trkpt lat="51.597571" lon="5.515451">
        <ele>9.299209</ele>
        <time>2026-08-27T12:03:31.473Z</time>
      </trkpt>
      <trkpt lat="51.597593" lon="5.515319">
        <ele>9.304068</ele>
        <time>2026-08-27T12:03:32.729Z</time>
      </trkpt>
      <trkpt lat="51.597636" lon="5.515222">
        <ele>9.308304</ele>
        <time>2026-08-27T12:03:33.808Z</time>
      </trkpt>
      <trkpt lat="51.598218" lon="5.514194">
        <ele>9.357753</ele>
        <time>2026-08-27T12:03:46.554Z</time>
      </trkpt>
      <trkpt lat="51.598271" lon="5.514053">
        <ele>9.363612</ele>
        <time>2026-08-27T12:03:48.130Z</time>
      </trkpt>
      <trkpt lat="51.598281" lon="5.513999">
        <ele>9.365615</ele>
        <time>2026-08-27T12:03:48.663Z</time>
      </trkpt>
      <trkpt lat="51.598292" lon="5.513937">
        <ele>9.367907</ele>
        <time>2026-08-27T12:03:49.277Z</time>
      </trkpt>
      <trkpt lat="51.598348" lon="5.513187">
        <ele>9.360848</ele>
        <time>2026-08-27T12:03:56.379Z</time>
      </trkpt>
      <trkpt lat="51.598444" lon="5.512164">
        <ele>9.332554</ele>
        <time>2026-08-27T12:04:05.824Z</time>
      </trkpt>
      <trkpt lat="51.598575" lon="5.510750">
        <ele>9.295086</ele>
        <time>2026-08-27T12:04:18.702Z</time>
      </trkpt>
      <trkpt lat="51.598564" lon="5.510696">
        <ele>9.294390</ele>
        <time>2026-08-27T12:04:19.211Z</time>
      </trkpt>
      <trkpt lat="51.598638" lon="5.510676">
        <ele>9.292913</ele>
        <time>2026-08-27T12:04:20.275Z</time>
      </trkpt>
      <trkpt lat="51.598906" lon="5.510730">
        <ele>9.287594</ele>
        <time>2026-08-27T12:04:24.094Z</time>
      </trkpt>
      <trkpt lat="51.599256" lon="5.510789">
        <ele>9.280665</ele>
        <time>2026-08-27T12:04:29.162Z</time>
      </trkpt>
      <trkpt lat="51.599369" lon="5.510724">
        <ele>9.278302</ele>
        <time>2026-08-27T12:04:30.908Z</time>
      </trkpt>
      <trkpt lat="51.600280" lon="5.509091">
        <ele>9.253356</ele>
        <time>2026-08-27T12:04:51.415Z</time>
      </trkpt>
      <trkpt lat="51.600375" lon="5.509066">
        <ele>9.251838</ele>
        <time>2026-08-27T12:04:52.867Z</time>
      </trkpt>
      <trkpt lat="51.600658" lon="5.509190">
        <ele>9.247215</ele>
        <time>2026-08-27T12:04:57.284Z</time>
      </trkpt>
      <trkpt lat="51.600742" lon="5.509226">
        <ele>9.245844</ele>
        <time>2026-08-27T12:04:58.573Z</time>
      </trkpt>
      <trkpt lat="51.600841" lon="5.508975">
        <ele>9.242933</ele>
        <time>2026-08-27T12:05:01.315Z</time>
      </trkpt>
      <trkpt lat="51.601902" lon="5.506265">
        <ele>9.154913</ele>
        <time>2026-08-27T12:05:30.226Z</time>
      </trkpt>
      <trkpt lat="51.601954" lon="5.506125">
        <ele>9.149021</ele>
        <time>2026-08-27T12:05:32.222Z</time>
      </trkpt>
      <trkpt lat="51.602007" lon="5.505993">
        <ele>9.143343</ele>
        <time>2026-08-27T12:05:34.175Z</time>
      </trkpt>
      <trkpt lat="51.602888" lon="5.503735">
        <ele>9.272836</ele>
        <time>2026-08-27T12:05:59.241Z</time>
      </trkpt>
      <trkpt lat="51.603007" lon="5.503431">
        <ele>9.296040</ele>
        <time>2026-08-27T12:06:02.691Z</time>
      </trkpt>
      <trkpt lat="51.603037" lon="5.503356">
        <ele>9.301800</ele>
        <time>2026-08-27T12:06:03.860Z</time>
      </trkpt>
      <trkpt lat="51.603068" lon="5.503282">
        <ele>9.307564</ele>
        <time>2026-08-27T12:06:05.012Z</time>
      </trkpt>
      <trkpt lat="51.603122" lon="5.503179">
        <ele>9.317584</ele>
        <time>2026-08-27T12:06:06.791Z</time>
      </trkpt>
      <trkpt lat="51.603390" lon="5.502690">
        <ele>9.404232</ele>
        <time>2026-08-27T12:06:13.185Z</time>
      </trkpt>
      <trkpt lat="51.603726" lon="5.502219">
        <ele>9.499532</ele>
        <time>2026-08-27T12:06:20.245Z</time>
      </trkpt>
      <trkpt lat="51.603866" lon="5.502134">
        <ele>9.531539</ele>
        <time>2026-08-27T12:06:23.366Z</time>
      </trkpt>
      <trkpt lat="51.603815" lon="5.501913">
        <ele>9.562863</ele>
        <time>2026-08-27T12:06:26.372Z</time>
      </trkpt>
      <trkpt lat="51.603676" lon="5.501207">
        <ele>9.661264</ele>
        <time>2026-08-27T12:06:35.992Z</time>
      </trkpt>
      <trkpt lat="51.603657" lon="5.500984">
        <ele>9.691170</ele>
        <time>2026-08-27T12:06:38.954Z</time>
      </trkpt>
      <trkpt lat="51.603640" lon="5.500710">
        <ele>9.713988</ele>
        <time>2026-08-27T12:06:42.580Z</time>
      </trkpt>
      <trkpt lat="51.603683" lon="5.500132">
        <ele>9.753267</ele>
        <time>2026-08-27T12:06:50.253Z</time>
      </trkpt>
      <trkpt lat="51.603722" lon="5.499598">
        <ele>9.789547</ele>
        <time>2026-08-27T12:06:57.279Z</time>
      </trkpt>
      <trkpt lat="51.603709" lon="5.499240">
        <ele>9.813744</ele>
        <time>2026-08-27T12:07:01.925Z</time>
      </trkpt>
      <trkpt lat="51.603512" lon="5.498074">
        <ele>9.895028</ele>
        <time>2026-08-27T12:07:17.271Z</time>
      </trkpt>
      <trkpt lat="51.603509" lon="5.497938">
        <ele>9.880343</ele>
        <time>2026-08-27T12:07:18.934Z</time>
      </trkpt>
      <trkpt lat="51.603427" lon="5.497879">
        <ele>9.864738</ele>
        <time>2026-08-27T12:07:20.701Z</time>
      </trkpt>
      <trkpt lat="51.603364" lon="5.497727">
        <ele>9.845018</ele>
        <time>2026-08-27T12:07:22.930Z</time>
      </trkpt>
      <trkpt lat="51.603183" lon="5.497291">
        <ele>9.788426</ele>
        <time>2026-08-27T12:07:29.230Z</time>
      </trkpt>
      <trkpt lat="51.603070" lon="5.496874">
        <ele>9.739329</ele>
        <time>2026-08-27T12:07:34.608Z</time>
      </trkpt>
      <trkpt lat="51.602747" lon="5.495915">
        <ele>9.621603</ele>
        <time>2026-08-27T12:07:47.447Z</time>
      </trkpt>
      <trkpt lat="51.602671" lon="5.495488">
        <ele>9.603752</ele>
        <time>2026-08-27T12:07:52.892Z</time>
      </trkpt>
      <trkpt lat="51.602651" lon="5.495341">
        <ele>9.641744</ele>
        <time>2026-08-27T12:07:54.781Z</time>
      </trkpt>
      <trkpt lat="51.602615" lon="5.495191">
        <ele>9.682342</ele>
        <time>2026-08-27T12:07:56.311Z</time>
      </trkpt>
      <trkpt lat="51.602484" lon="5.494342">
        <ele>9.903196</ele>
        <time>2026-08-27T12:08:05.241Z</time>
      </trkpt>
      <trkpt lat="51.602330" lon="5.493793">
        <ele>10.055276</ele>
        <time>2026-08-27T12:08:11.798Z</time>
      </trkpt>
      <trkpt lat="51.601857" lon="5.493047">
        <ele>10.312354</ele>
        <time>2026-08-27T12:08:23.461Z</time>
      </trkpt>
      <trkpt lat="51.601431" lon="5.492445">
        <ele>10.281875</ele>
        <time>2026-08-27T12:08:32.533Z</time>
      </trkpt>
      <trkpt lat="51.601354" lon="5.492341">
        <ele>10.276471</ele>
        <time>2026-08-27T12:08:33.993Z</time>
      </trkpt>
      <trkpt lat="51.600147" lon="5.490406">
        <ele>10.086727</ele>
        <time>2026-08-27T12:08:57.176Z</time>
      </trkpt>
      <trkpt lat="51.599483" lon="5.489234">
        <ele>9.872086</ele>
        <time>2026-08-27T12:09:11.459Z</time>
      </trkpt>
      <trkpt lat="51.599332" lon="5.488954">
        <ele>9.821641</ele>
        <time>2026-08-27T12:09:19.922Z</time>
      </trkpt>
      <trkpt lat="51.599364" lon="5.488945">
        <ele>9.813988</ele>
        <time>2026-08-27T12:09:20.352Z</time>
      </trkpt>
      <trkpt lat="51.599385" lon="5.488986">
        <ele>9.806212</ele>
        <time>2026-08-27T12:09:20.829Z</time>
      </trkpt>
      <trkpt lat="51.599364" lon="5.488945">
        <ele>9.798436</ele>
        <time>2026-08-27T12:09:21.320Z</time>
      </trkpt>
      <trkpt lat="51.599467" lon="5.488915">
        <ele>9.773778</ele>
        <time>2026-08-27T12:09:22.744Z</time>
      </trkpt>
      <trkpt lat="51.601382" lon="5.488353">
        <ele>9.601867</ele>
        <time>2026-08-27T12:09:49.662Z</time>
      </trkpt>
      <trkpt lat="51.601477" lon="5.488326">
        <ele>9.654627</ele>
        <time>2026-08-27T12:09:51.331Z</time>
      </trkpt>
      <trkpt lat="51.601896" lon="5.488201">
        <ele>9.887682</ele>
        <time>2026-08-27T12:09:59.001Z</time>
      </trkpt>
      <trkpt lat="51.602337" lon="5.488064">
        <ele>10.133317</ele>
        <time>2026-08-27T12:10:07.473Z</time>
      </trkpt>
      <trkpt lat="51.602573" lon="5.487965">
        <ele>10.266697</ele>
        <time>2026-08-27T12:10:12.113Z</time>
      </trkpt>
      <trkpt lat="51.602862" lon="5.487791">
        <ele>10.395631</ele>
        <time>2026-08-27T12:10:17.560Z</time>
      </trkpt>
      <trkpt lat="51.603264" lon="5.487482">
        <ele>10.446186</ele>
        <time>2026-08-27T12:10:24.811Z</time>
      </trkpt>
      <trkpt lat="51.603452" lon="5.487321">
        <ele>10.470353</ele>
        <time>2026-08-27T12:10:29.326Z</time>
      </trkpt>
      <trkpt lat="51.603015" lon="5.486603">
        <ele>10.541213</ele>
        <time>2026-08-27T12:10:38.493Z</time>
      </trkpt>
      <trkpt lat="51.603452" lon="5.487321">
        <ele>10.517459</ele>
        <time>2026-08-27T12:10:46.911Z</time>
      </trkpt>
      <trkpt lat="51.603547" lon="5.487241">
        <ele>10.479000</ele>
        <time>2026-08-27T12:10:48.348Z</time>
      </trkpt>
      <trkpt lat="51.603932" lon="5.486903">
        <ele>10.321695</ele>
        <time>2026-08-27T12:10:54.355Z</time>
      </trkpt>
      <trkpt lat="51.603982" lon="5.487042">
        <ele>10.285907</ele>
        <time>2026-08-27T12:11:05.327Z</time>
      </trkpt>
      <trkpt lat="51.604007" lon="5.487253">
        <ele>10.238048</ele>
        <time>2026-08-27T12:11:10.084Z</time>
      </trkpt>
      <trkpt lat="51.604801" lon="5.488921">
        <ele>10.061930</ele>
        <time>2026-08-27T12:11:56.709Z</time>
      </trkpt>
      <trkpt lat="51.604808" lon="5.488937">
        <ele>10.064878</ele>
        <time>2026-08-27T12:11:57.182Z</time>
      </trkpt>
      <trkpt lat="51.604834" lon="5.489046">
        <ele>10.082461</ele>
        <time>2026-08-27T12:11:59.965Z</time>
      </trkpt>
      <trkpt lat="51.604709" lon="5.489597">
        <ele>10.170799</ele>
        <time>2026-08-27T12:12:14.178Z</time>
      </trkpt>
      <trkpt lat="51.604686" lon="5.489623">
        <ele>10.177613</ele>
        <time>2026-08-27T12:12:15.321Z</time>
      </trkpt>
      <trkpt lat="51.604573" lon="5.489606">
        <ele>10.205131</ele>
        <time>2026-08-27T12:12:19.804Z</time>
      </trkpt>
      <trkpt lat="51.604517" lon="5.489599">
        <ele>10.218750</ele>
        <time>2026-08-27T12:12:26.279Z</time>
      </trkpt>
      <trkpt lat="51.604472" lon="5.489648">
        <ele>10.231922</ele>
        <time>2026-08-27T12:12:32.416Z</time>
      </trkpt>
      <trkpt lat="51.604394" lon="5.489907">
        <ele>10.275269</ele>
        <time>2026-08-27T12:12:52.741Z</time>
      </trkpt>
      <trkpt lat="51.604365" lon="5.490044">
        <ele>10.297066</ele>
        <time>2026-08-27T12:13:03.008Z</time>
      </trkpt>
      <trkpt lat="51.604175" lon="5.490367">
        <ele>10.364061</ele>
        <time>2026-08-27T12:13:34.234Z</time>
      </trkpt>
      <trkpt lat="51.604069" lon="5.490633">
        <ele>10.383653</ele>
        <time>2026-08-27T12:13:56.416Z</time>
      </trkpt>
      <trkpt lat="51.604047" lon="5.491046">
        <ele>10.390447</ele>
        <time>2026-08-27T12:14:25.342Z</time>
      </trkpt>
      <trkpt lat="51.604080" lon="5.491591">
        <ele>10.399422</ele>
        <time>2026-08-27T12:15:03.216Z</time>
      </trkpt>
      <trkpt lat="51.604280" lon="5.491652">
        <ele>10.404794</ele>
        <time>2026-08-27T12:15:06.046Z</time>
      </trkpt>
      <trkpt lat="51.605156" lon="5.492149">
        <ele>10.423221</ele>
        <time>2026-08-27T12:15:19.212Z</time>
      </trkpt>
      <trkpt lat="51.605463" lon="5.492209">
        <ele>10.400470</ele>
        <time>2026-08-27T12:15:23.711Z</time>
      </trkpt>
      <trkpt lat="51.605564" lon="5.492275">
        <ele>10.392450</ele>
        <time>2026-08-27T12:15:25.906Z</time>
      </trkpt>
      <trkpt lat="51.605650" lon="5.492178">
        <ele>10.384726</ele>
        <time>2026-08-27T12:15:28.063Z</time>
      </trkpt>
      <trkpt lat="51.605789" lon="5.492057">
        <ele>10.373101</ele>
        <time>2026-08-27T12:15:31.311Z</time>
      </trkpt>
      <trkpt lat="51.606002" lon="5.492012">
        <ele>10.357296</ele>
        <time>2026-08-27T12:15:35.817Z</time>
      </trkpt>
      <trkpt lat="51.606272" lon="5.491999">
        <ele>10.337424</ele>
        <time>2026-08-27T12:15:41.630Z</time>
      </trkpt>
      <trkpt lat="51.606776" lon="5.492089">
        <ele>10.300117</ele>
        <time>2026-08-27T12:15:51.561Z</time>
      </trkpt>
      <trkpt lat="51.607000" lon="5.492128">
        <ele>10.229659</ele>
        <time>2026-08-27T12:15:55.757Z</time>
      </trkpt>
      <trkpt lat="51.607019" lon="5.492174">
        <ele>10.215640</ele>
        <time>2026-08-27T12:15:56.386Z</time>
      </trkpt>
      <trkpt lat="51.607064" lon="5.492235">
        <ele>10.191605</ele>
        <time>2026-08-27T12:15:57.470Z</time>
      </trkpt>
      <trkpt lat="51.607100" lon="5.492231">
        <ele>10.176860</ele>
        <time>2026-08-27T12:15:58.134Z</time>
      </trkpt>
      <trkpt lat="51.607111" lon="5.492376">
        <ele>10.139790</ele>
        <time>2026-08-27T12:15:59.791Z</time>
      </trkpt>
      <trkpt lat="51.607189" lon="5.492381">
        <ele>10.107894</ele>
        <time>2026-08-27T12:16:01.230Z</time>
      </trkpt>
      <trkpt lat="51.607208" lon="5.492382">
        <ele>10.100126</ele>
        <time>2026-08-27T12:16:01.572Z</time>
      </trkpt>
      <trkpt lat="51.607224" lon="5.492382">
        <ele>10.093589</ele>
        <time>2026-08-27T12:16:01.870Z</time>
      </trkpt>
      <trkpt lat="51.607254" lon="5.492384">
        <ele>10.081320</ele>
        <time>2026-08-27T12:16:02.416Z</time>
      </trkpt>
      <trkpt lat="51.607271" lon="5.492384">
        <ele>10.074374</ele>
        <time>2026-08-27T12:16:02.736Z</time>
      </trkpt>
      <trkpt lat="51.607290" lon="5.492386">
        <ele>10.066593</ele>
        <time>2026-08-27T12:16:03.078Z</time>
      </trkpt>
      <trkpt lat="51.607310" lon="5.492388">
        <ele>10.058406</ele>
        <time>2026-08-27T12:16:03.460Z</time>
      </trkpt>
      <trkpt lat="51.607320" lon="5.492389">
        <ele>10.054312</ele>
        <time>2026-08-27T12:16:03.647Z</time>
      </trkpt>
      <trkpt lat="51.607329" lon="5.492388">
        <ele>10.050626</ele>
        <time>2026-08-27T12:16:03.807Z</time>
      </trkpt>
      <trkpt lat="51.607442" lon="5.492393">
        <ele>10.004436</ele>
        <time>2026-08-27T12:16:05.872Z</time>
      </trkpt>
      <trkpt lat="51.607466" lon="5.492395">
        <ele>9.994616</ele>
        <time>2026-08-27T12:16:06.331Z</time>
      </trkpt>
      <trkpt lat="51.607555" lon="5.492488">
        <ele>9.951264</ele>
        <time>2026-08-27T12:16:08.270Z</time>
      </trkpt>
      <trkpt lat="51.607778" lon="5.492605">
        <ele>9.855429</ele>
        <time>2026-08-27T12:16:11.368Z</time>
      </trkpt>
      <trkpt lat="51.607932" lon="5.492758">
        <ele>9.781490</ele>
        <time>2026-08-27T12:16:13.757Z</time>
      </trkpt>
      <trkpt lat="51.608689" lon="5.493898">
        <ele>9.435542</ele>
        <time>2026-08-27T12:16:27.967Z</time>
      </trkpt>
      <trkpt lat="51.608751" lon="5.494074">
        <ele>9.403867</ele>
        <time>2026-08-27T12:16:29.765Z</time>
      </trkpt>
      <trkpt lat="51.608998" lon="5.495602">
        <ele>9.156702</ele>
        <time>2026-08-27T12:16:43.574Z</time>
      </trkpt>
      <trkpt lat="51.609012" lon="5.495783">
        <ele>9.128150</ele>
        <time>2026-08-27T12:16:45.129Z</time>
      </trkpt>
      <trkpt lat="51.608980" lon="5.496068">
        <ele>9.091532</ele>
        <time>2026-08-27T12:16:47.592Z</time>
      </trkpt>
      <trkpt lat="51.608616" lon="5.497309">
        <ele>8.953956</ele>
        <time>2026-08-27T12:16:59.221Z</time>
      </trkpt>
      <trkpt lat="51.607701" lon="5.498834">
        <ele>8.890427</ele>
        <time>2026-08-27T12:17:18.708Z</time>
      </trkpt>
      <trkpt lat="51.607259" lon="5.499558">
        <ele>8.989970</ele>
        <time>2026-08-27T12:17:32.279Z</time>
      </trkpt>
      <trkpt lat="51.606917" lon="5.500185">
        <ele>9.071793</ele>
        <time>2026-08-27T12:17:43.387Z</time>
      </trkpt>
      <trkpt lat="51.606392" lon="5.500946">
        <ele>8.971286</ele>
        <time>2026-08-27T12:17:57.946Z</time>
      </trkpt>
      <trkpt lat="51.606163" lon="5.501390">
        <ele>8.882636</ele>
        <time>2026-08-27T12:18:04.845Z</time>
      </trkpt>
      <trkpt lat="51.606021" lon="5.501781">
        <ele>8.813063</ele>
        <time>2026-08-27T12:18:10.101Z</time>
      </trkpt>
      <trkpt lat="51.606122" lon="5.501851">
        <ele>8.785868</ele>
        <time>2026-08-27T12:18:12.116Z</time>
      </trkpt>
      <trkpt lat="51.606323" lon="5.501931">
        <ele>8.734661</ele>
        <time>2026-08-27T12:18:14.857Z</time>
      </trkpt>
      <trkpt lat="51.607156" lon="5.502293">
        <ele>8.488960</ele>
        <time>2026-08-27T12:18:26.312Z</time>
      </trkpt>
      <trkpt lat="51.607644" lon="5.502568">
        <ele>8.330391</ele>
        <time>2026-08-27T12:18:33.244Z</time>
      </trkpt>
      <trkpt lat="51.608618" lon="5.502715">
        <ele>8.118333</ele>
        <time>2026-08-27T12:18:47.619Z</time>
      </trkpt>
      <trkpt lat="51.608706" lon="5.502759">
        <ele>8.123730</ele>
        <time>2026-08-27T12:18:49.007Z</time>
      </trkpt>
      <trkpt lat="51.609192" lon="5.503385">
        <ele>8.160180</ele>
        <time>2026-08-27T12:18:58.236Z</time>
      </trkpt>
      <trkpt lat="51.609647" lon="5.503725">
        <ele>8.189558</ele>
        <time>2026-08-27T12:19:05.847Z</time>
      </trkpt>
      <trkpt lat="51.609875" lon="5.503805">
        <ele>8.203225</ele>
        <time>2026-08-27T12:19:09.415Z</time>
      </trkpt>
      <trkpt lat="51.610094" lon="5.503825">
        <ele>8.220597</ele>
        <time>2026-08-27T12:19:12.777Z</time>
      </trkpt>
      <trkpt lat="51.611386" lon="5.503634">
        <ele>8.349477</ele>
        <time>2026-08-27T12:19:32.705Z</time>
      </trkpt>
      <trkpt lat="51.611483" lon="5.503620">
        <ele>8.359151</ele>
        <time>2026-08-27T12:19:34.206Z</time>
      </trkpt>
      <trkpt lat="51.611830" lon="5.503590">
        <ele>8.384031</ele>
        <time>2026-08-27T12:19:39.512Z</time>
      </trkpt>
      <trkpt lat="51.611910" lon="5.503530">
        <ele>8.377245</ele>
        <time>2026-08-27T12:19:40.832Z</time>
      </trkpt>
      <trkpt lat="51.612010" lon="5.503408">
        <ele>8.367597</ele>
        <time>2026-08-27T12:19:42.699Z</time>
      </trkpt>
      <trkpt lat="51.612167" lon="5.503088">
        <ele>8.348122</ele>
        <time>2026-08-27T12:19:46.412Z</time>
      </trkpt>
      <trkpt lat="51.612410" lon="5.502920">
        <ele>8.327787</ele>
        <time>2026-08-27T12:19:50.210Z</time>
      </trkpt>
      <trkpt lat="51.613416" lon="5.502252">
        <ele>8.248821</ele>
        <time>2026-08-27T12:20:05.636Z</time>
      </trkpt>
      <trkpt lat="51.614056" lon="5.501909">
        <ele>8.238985</ele>
        <time>2026-08-27T12:20:15.664Z</time>
      </trkpt>
      <trkpt lat="51.614490" lon="5.501688">
        <ele>8.232347</ele>
        <time>2026-08-27T12:20:22.580Z</time>
      </trkpt>
      <trkpt lat="51.614949" lon="5.501500">
        <ele>8.225440</ele>
        <time>2026-08-27T12:20:29.641Z</time>
      </trkpt>
      <trkpt lat="51.615116" lon="5.501433">
        <ele>8.214475</ele>
        <time>2026-08-27T12:20:32.153Z</time>
      </trkpt>
      <trkpt lat="51.615347" lon="5.501372">
        <ele>8.173279</ele>
        <time>2026-08-27T12:20:35.530Z</time>
      </trkpt>
      <trkpt lat="51.615444" lon="5.503608">
        <ele>7.928336</ele>
        <time>2026-08-27T12:20:54.815Z</time>
      </trkpt>
      <trkpt lat="51.615565" lon="5.505980">
        <ele>8.071358</ele>
        <time>2026-08-27T12:21:17.630Z</time>
      </trkpt>
      <trkpt lat="51.615655" lon="5.508175">
        <ele>8.260246</ele>
        <time>2026-08-27T12:21:38.330Z</time>
      </trkpt>
      <trkpt lat="51.615660" lon="5.508367">
        <ele>8.277733</ele>
        <time>2026-08-27T12:21:40.139Z</time>
      </trkpt>
      <trkpt lat="51.615664" lon="5.508464">
        <ele>8.286579</ele>
        <time>2026-08-27T12:21:41.054Z</time>
      </trkpt>
      <trkpt lat="51.615670" lon="5.508560">
        <ele>8.295359</ele>
        <time>2026-08-27T12:21:41.968Z</time>
      </trkpt>
      <trkpt lat="51.615842" lon="5.512464">
        <ele>8.903097</ele>
        <time>2026-08-27T12:22:20.811Z</time>
      </trkpt>
      <trkpt lat="51.615906" lon="5.514062">
        <ele>8.896147</ele>
        <time>2026-08-27T12:22:36.626Z</time>
      </trkpt>
      <trkpt lat="51.615958" lon="5.514819">
        <ele>8.892456</ele>
        <time>2026-08-27T12:22:43.460Z</time>
      </trkpt>
      <trkpt lat="51.616060" lon="5.515077">
        <ele>8.890974</ele>
        <time>2026-08-27T12:22:46.027Z</time>
      </trkpt>
      <trkpt lat="51.616413" lon="5.515564">
        <ele>8.810369</ele>
        <time>2026-08-27T12:22:51.992Z</time>
      </trkpt>
      <trkpt lat="51.617137" lon="5.516578">
        <ele>8.572473</ele>
        <time>2026-08-27T12:23:05.047Z</time>
      </trkpt>
      <trkpt lat="51.617538" lon="5.516969">
        <ele>8.456245</ele>
        <time>2026-08-27T12:23:11.845Z</time>
      </trkpt>
      <trkpt lat="51.617635" lon="5.517127">
        <ele>8.467660</ele>
        <time>2026-08-27T12:23:13.951Z</time>
      </trkpt>
      <trkpt lat="51.617648" lon="5.517239">
        <ele>8.486749</ele>
        <time>2026-08-27T12:23:15.067Z</time>
      </trkpt>
      <trkpt lat="51.617618" lon="5.517815">
        <ele>8.583589</ele>
        <time>2026-08-27T12:23:20.915Z</time>
      </trkpt>
      <trkpt lat="51.617636" lon="5.518583">
        <ele>8.712350</ele>
        <time>2026-08-27T12:23:28.950Z</time>
      </trkpt>
      <trkpt lat="51.617669" lon="5.518736">
        <ele>8.739485</ele>
        <time>2026-08-27T12:23:30.547Z</time>
      </trkpt>
      <trkpt lat="51.617827" lon="5.519066">
        <ele>8.809301</ele>
        <time>2026-08-27T12:23:34.579Z</time>
      </trkpt>
      <trkpt lat="51.618718" lon="5.520910">
        <ele>9.232349</ele>
        <time>2026-08-27T12:23:57.489Z</time>
      </trkpt>
      <trkpt lat="51.619055" lon="5.521773">
        <ele>9.423016</ele>
        <time>2026-08-27T12:24:07.986Z</time>
      </trkpt>
      <trkpt lat="51.619340" lon="5.522601">
        <ele>9.470532</ele>
        <time>2026-08-27T12:24:17.378Z</time>
      </trkpt>
      <trkpt lat="51.619591" lon="5.523451">
        <ele>9.469912</ele>
        <time>2026-08-27T12:24:25.955Z</time>
      </trkpt>
      <trkpt lat="51.619600" lon="5.523856">
        <ele>9.469645</ele>
        <time>2026-08-27T12:24:29.606Z</time>
      </trkpt>
      <trkpt lat="51.619678" lon="5.524132">
        <ele>9.469445</ele>
        <time>2026-08-27T12:24:32.304Z</time>
      </trkpt>
      <trkpt lat="51.619702" lon="5.524217">
        <ele>9.469384</ele>
        <time>2026-08-27T12:24:33.130Z</time>
      </trkpt>
      <trkpt lat="51.619733" lon="5.524329">
        <ele>9.469303</ele>
        <time>2026-08-27T12:24:34.210Z</time>
      </trkpt>
      <trkpt lat="51.619982" lon="5.525210">
        <ele>9.403905</ele>
        <time>2026-08-27T12:24:42.631Z</time>
      </trkpt>
      <trkpt lat="51.620000" lon="5.525333">
        <ele>9.390771</ele>
        <time>2026-08-27T12:24:43.713Z</time>
      </trkpt>
      <trkpt lat="51.619999" lon="5.525730">
        <ele>9.349507</ele>
        <time>2026-08-27T12:24:47.161Z</time>
      </trkpt>
      <trkpt lat="51.620729" lon="5.528246">
        <ele>9.006542</ele>
        <time>2026-08-27T12:25:11.879Z</time>
      </trkpt>
      <trkpt lat="51.620753" lon="5.528592">
        <ele>8.952009</ele>
        <time>2026-08-27T12:25:14.862Z</time>
      </trkpt>
      <trkpt lat="51.620816" lon="5.528747">
        <ele>8.922990</ele>
        <time>2026-08-27T12:25:16.439Z</time>
      </trkpt>
      <trkpt lat="51.620994" lon="5.529072">
        <ele>8.855107</ele>
        <time>2026-08-27T12:25:20.123Z</time>
      </trkpt>
      <trkpt lat="51.622541" lon="5.534297">
        <ele>8.074936</ele>
        <time>2026-08-27T12:26:09.418Z</time>
      </trkpt>
      <trkpt lat="51.622605" lon="5.534594">
        <ele>8.068937</ele>
        <time>2026-08-27T12:26:12.627Z</time>
      </trkpt>
      <trkpt lat="51.622610" lon="5.534658">
        <ele>8.067705</ele>
        <time>2026-08-27T12:26:13.286Z</time>
      </trkpt>
      <trkpt lat="51.622572" lon="5.534857">
        <ele>8.063732</ele>
        <time>2026-08-27T12:26:15.450Z</time>
      </trkpt>
      <trkpt lat="51.622570" lon="5.535048">
        <ele>8.060086</ele>
        <time>2026-08-27T12:26:18.094Z</time>
      </trkpt>
      <trkpt lat="51.622906" lon="5.536131">
        <ele>8.381724</ele>
        <time>2026-08-27T12:26:35.337Z</time>
      </trkpt>
      <trkpt lat="51.623553" lon="5.538264">
        <ele>8.961395</ele>
        <time>2026-08-27T12:27:07.842Z</time>
      </trkpt>
      <trkpt lat="51.623648" lon="5.538324">
        <ele>8.972384</ele>
        <time>2026-08-27T12:27:09.915Z</time>
      </trkpt>
      <trkpt lat="51.623797" lon="5.538412">
        <ele>8.989474</ele>
        <time>2026-08-27T12:27:12.280Z</time>
      </trkpt>
      <trkpt lat="51.623953" lon="5.538651">
        <ele>9.012658</ele>
        <time>2026-08-27T12:27:15.462Z</time>
      </trkpt>
      <trkpt lat="51.624203" lon="5.539021">
        <ele>9.049219</ele>
        <time>2026-08-27T12:27:20.432Z</time>
      </trkpt>
      <trkpt lat="51.624259" lon="5.539101">
        <ele>9.057279</ele>
        <time>2026-08-27T12:27:21.535Z</time>
      </trkpt>
      <trkpt lat="51.624426" lon="5.539368">
        <ele>9.082617</ele>
        <time>2026-08-27T12:27:24.973Z</time>
      </trkpt>
      <trkpt lat="51.624677" lon="5.540021">
        <ele>9.128876</ele>
        <time>2026-08-27T12:27:32.027Z</time>
      </trkpt>
      <trkpt lat="51.624826" lon="5.540120">
        <ele>9.140835</ele>
        <time>2026-08-27T12:27:34.446Z</time>
      </trkpt>
      <trkpt lat="51.624892" lon="5.540218">
        <ele>9.147495</ele>
        <time>2026-08-27T12:27:35.812Z</time>
      </trkpt>
      <trkpt lat="51.625237" lon="5.541342">
        <ele>9.205250</ele>
        <time>2026-08-27T12:27:47.951Z</time>
      </trkpt>
      <trkpt lat="51.625514" lon="5.541726">
        <ele>9.232366</ele>
        <time>2026-08-27T12:27:53.601Z</time>
      </trkpt>
      <trkpt lat="51.625574" lon="5.541944">
        <ele>9.243350</ele>
        <time>2026-08-27T12:27:55.835Z</time>
      </trkpt>
      <trkpt lat="51.625561" lon="5.542232">
        <ele>9.236144</ele>
        <time>2026-08-27T12:27:58.486Z</time>
      </trkpt>
      <trkpt lat="51.625582" lon="5.542422">
        <ele>9.212437</ele>
        <time>2026-08-27T12:28:00.232Z</time>
      </trkpt>
      <trkpt lat="51.626213" lon="5.544778">
        <ele>8.897243</ele>
        <time>2026-08-27T12:28:22.191Z</time>
      </trkpt>
      <trkpt lat="51.626598" lon="5.546046">
        <ele>8.927110</ele>
        <time>2026-08-27T12:28:35.311Z</time>
      </trkpt>
      <trkpt lat="51.626701" lon="5.546423">
        <ele>8.936549</ele>
        <time>2026-08-27T12:28:39.312Z</time>
      </trkpt>
      <trkpt lat="51.626714" lon="5.546813">
        <ele>8.945500</ele>
        <time>2026-08-27T12:28:43.120Z</time>
      </trkpt>
      <trkpt lat="51.626712" lon="5.546905">
        <ele>8.947609</ele>
        <time>2026-08-27T12:28:44.007Z</time>
      </trkpt>
      <trkpt lat="51.626707" lon="5.547018">
        <ele>8.950205</ele>
        <time>2026-08-27T12:28:45.110Z</time>
      </trkpt>
      <trkpt lat="51.626701" lon="5.547135">
        <ele>8.952896</ele>
        <time>2026-08-27T12:28:46.248Z</time>
      </trkpt>
      <trkpt lat="51.626715" lon="5.547183">
        <ele>8.954111</ele>
        <time>2026-08-27T12:28:46.771Z</time>
      </trkpt>
      <trkpt lat="51.627453" lon="5.549721">
        <ele>8.888427</ele>
        <time>2026-08-27T12:29:12.156Z</time>
      </trkpt>
      <trkpt lat="51.627532" lon="5.549866">
        <ele>8.882735</ele>
        <time>2026-08-27T12:29:13.852Z</time>
      </trkpt>
      <trkpt lat="51.627586" lon="5.549973">
        <ele>8.878665</ele>
        <time>2026-08-27T12:29:15.065Z</time>
      </trkpt>
      <trkpt lat="51.627899" lon="5.550994">
        <ele>8.913275</ele>
        <time>2026-08-27T12:29:25.366Z</time>
      </trkpt>
      <trkpt lat="51.628146" lon="5.551839">
        <ele>8.946380</ele>
        <time>2026-08-27T12:29:34.280Z</time>
      </trkpt>
      <trkpt lat="51.628396" lon="5.552704">
        <ele>8.978854</ele>
        <time>2026-08-27T12:29:43.414Z</time>
      </trkpt>
      <trkpt lat="51.628582" lon="5.553405">
        <ele>8.980749</ele>
        <time>2026-08-27T12:29:50.573Z</time>
      </trkpt>
      <trkpt lat="51.628634" lon="5.553576">
        <ele>8.981223</ele>
        <time>2026-08-27T12:29:52.361Z</time>
      </trkpt>
      <trkpt lat="51.628836" lon="5.554275">
        <ele>8.983139</ele>
        <time>2026-08-27T12:29:59.507Z</time>
      </trkpt>
      <trkpt lat="51.629057" lon="5.554943">
        <ele>8.985020</ele>
        <time>2026-08-27T12:30:06.360Z</time>
      </trkpt>
      <trkpt lat="51.629128" lon="5.555084">
        <ele>8.985472</ele>
        <time>2026-08-27T12:30:07.963Z</time>
      </trkpt>
      <trkpt lat="51.629336" lon="5.555347">
        <ele>8.974174</ele>
        <time>2026-08-27T12:30:11.724Z</time>
      </trkpt>
      <trkpt lat="51.629444" lon="5.555500">
        <ele>8.962390</ele>
        <time>2026-08-27T12:30:13.771Z</time>
      </trkpt>
      <trkpt lat="51.629612" lon="5.555870">
        <ele>8.939072</ele>
        <time>2026-08-27T12:30:17.895Z</time>
      </trkpt>
      <trkpt lat="51.629713" lon="5.556298">
        <ele>8.915782</ele>
        <time>2026-08-27T12:30:22.046Z</time>
      </trkpt>
      <trkpt lat="51.629784" lon="5.556807">
        <ele>8.889247</ele>
        <time>2026-08-27T12:30:26.801Z</time>
      </trkpt>
      <trkpt lat="51.629842" lon="5.556916">
        <ele>8.881944</ele>
        <time>2026-08-27T12:30:28.090Z</time>
      </trkpt>
      <trkpt lat="51.629870" lon="5.556991">
        <ele>8.877493</ele>
        <time>2026-08-27T12:30:28.885Z</time>
      </trkpt>
      <trkpt lat="51.630104" lon="5.557773">
        <ele>8.841159</ele>
        <time>2026-08-27T12:30:36.684Z</time>
      </trkpt>
      <trkpt lat="51.630117" lon="5.557820">
        <ele>8.842452</ele>
        <time>2026-08-27T12:30:37.148Z</time>
      </trkpt>
      <trkpt lat="51.630133" lon="5.557884">
        <ele>8.844187</ele>
        <time>2026-08-27T12:30:37.767Z</time>
      </trkpt>
      <trkpt lat="51.630153" lon="5.557962">
        <ele>8.846309</ele>
        <time>2026-08-27T12:30:38.518Z</time>
      </trkpt>
      <trkpt lat="51.630168" lon="5.558029">
        <ele>8.848099</ele>
        <time>2026-08-27T12:30:39.167Z</time>
      </trkpt>
      <trkpt lat="51.630190" lon="5.558095">
        <ele>8.849982</ele>
        <time>2026-08-27T12:30:39.854Z</time>
      </trkpt>
      <trkpt lat="51.630446" lon="5.558895">
        <ele>8.872609</ele>
        <time>2026-08-27T12:30:48.180Z</time>
      </trkpt>
      <trkpt lat="51.630478" lon="5.559120">
        <ele>8.878412</ele>
        <time>2026-08-27T12:30:50.360Z</time>
      </trkpt>
      <trkpt lat="51.630482" lon="5.559528">
        <ele>8.888670</ele>
        <time>2026-08-27T12:30:54.209Z</time>
      </trkpt>
      <trkpt lat="51.630495" lon="5.559601">
        <ele>8.890579</ele>
        <time>2026-08-27T12:30:54.920Z</time>
      </trkpt>
      <trkpt lat="51.630568" lon="5.559749">
        <ele>8.895331</ele>
        <time>2026-08-27T12:30:56.709Z</time>
      </trkpt>
      <trkpt lat="51.630760" lon="5.560039">
        <ele>8.905990</ele>
        <time>2026-08-27T12:31:00.692Z</time>
      </trkpt>
      <trkpt lat="51.631021" lon="5.560520">
        <ele>8.920490</ele>
        <time>2026-08-27T12:31:06.718Z</time>
      </trkpt>
      <trkpt lat="51.631267" lon="5.561109">
        <ele>8.935716</ele>
        <time>2026-08-27T12:31:13.447Z</time>
      </trkpt>
      <trkpt lat="51.631518" lon="5.561925">
        <ele>8.955249</ele>
        <time>2026-08-27T12:31:21.993Z</time>
      </trkpt>
      <trkpt lat="51.631692" lon="5.562393">
        <ele>8.966949</ele>
        <time>2026-08-27T12:31:26.937Z</time>
      </trkpt>
      <trkpt lat="51.631738" lon="5.562729">
        <ele>8.968720</ele>
        <time>2026-08-27T12:31:30.013Z</time>
      </trkpt>
      <trkpt lat="51.631751" lon="5.563180">
        <ele>8.907300</ele>
        <time>2026-08-27T12:31:34.029Z</time>
      </trkpt>
      <trkpt lat="51.631666" lon="5.563609">
        <ele>8.846038</ele>
        <time>2026-08-27T12:31:38.020Z</time>
      </trkpt>
      <trkpt lat="51.631632" lon="5.563788">
        <ele>8.820573</ele>
        <time>2026-08-27T12:31:39.681Z</time>
      </trkpt>
      <trkpt lat="51.631650" lon="5.563921">
        <ele>8.802054</ele>
        <time>2026-08-27T12:31:40.889Z</time>
      </trkpt>
      <trkpt lat="51.632011" lon="5.564974">
        <ele>8.638408</ele>
        <time>2026-08-27T12:31:51.295Z</time>
      </trkpt>
      <trkpt lat="51.632632" lon="5.566748">
        <ele>8.168282</ele>
        <time>2026-08-27T12:32:08.370Z</time>
      </trkpt>
      <trkpt lat="51.632681" lon="5.566886">
        <ele>8.127502</ele>
        <time>2026-08-27T12:32:10.213Z</time>
      </trkpt>
      <trkpt lat="51.632836" lon="5.567139">
        <ele>8.036320</ele>
        <time>2026-08-27T12:32:14.321Z</time>
      </trkpt>
      <trkpt lat="51.632960" lon="5.567278">
        <ele>7.973895</ele>
        <time>2026-08-27T12:32:17.156Z</time>
      </trkpt>
      <trkpt lat="51.633026" lon="5.567347">
        <ele>7.941381</ele>
        <time>2026-08-27T12:32:18.618Z</time>
      </trkpt>
      <trkpt lat="51.633316" lon="5.567508">
        <ele>7.835189</ele>
        <time>2026-08-27T12:32:24.438Z</time>
      </trkpt>
      <trkpt lat="51.633490" lon="5.567567">
        <ele>7.832123</ele>
        <time>2026-08-27T12:32:27.785Z</time>
      </trkpt>
      <trkpt lat="51.633903" lon="5.567602">
        <ele>7.824990</ele>
        <time>2026-08-27T12:32:35.724Z</time>
      </trkpt>
      <trkpt lat="51.633968" lon="5.567609">
        <ele>7.823867</ele>
        <time>2026-08-27T12:32:37.000Z</time>
      </trkpt>
      <trkpt lat="51.634037" lon="5.567634">
        <ele>7.822647</ele>
        <time>2026-08-27T12:32:38.410Z</time>
      </trkpt>
      <trkpt lat="51.634103" lon="5.567705">
        <ele>7.821278</ele>
        <time>2026-08-27T12:32:39.971Z</time>
      </trkpt>
      <trkpt lat="51.634146" lon="5.567808">
        <ele>7.819950</ele>
        <time>2026-08-27T12:32:41.503Z</time>
      </trkpt>
      <trkpt lat="51.634158" lon="5.567913">
        <ele>7.818807</ele>
        <time>2026-08-27T12:32:42.821Z</time>
      </trkpt>
      <trkpt lat="51.634163" lon="5.568010">
        <ele>7.817765</ele>
        <time>2026-08-27T12:32:44.040Z</time>
      </trkpt>
      <trkpt lat="51.634167" lon="5.568110">
        <ele>7.816692</ele>
        <time>2026-08-27T12:32:45.281Z</time>
      </trkpt>
      <trkpt lat="51.634209" lon="5.568208">
        <ele>7.815418</ele>
        <time>2026-08-27T12:32:46.781Z</time>
      </trkpt>
      <trkpt lat="51.634296" lon="5.568228">
        <ele>7.813902</ele>
        <time>2026-08-27T12:32:48.555Z</time>
      </trkpt>
      <trkpt lat="51.636186" lon="5.568332">
        <ele>8.222090</ele>
        <time>2026-08-27T12:33:29.453Z</time>
      </trkpt>
      <trkpt lat="51.636276" lon="5.568372">
        <ele>8.250330</ele>
        <time>2026-08-27T12:33:31.479Z</time>
      </trkpt>
      <trkpt lat="51.636341" lon="5.568474">
        <ele>8.277774</ele>
        <time>2026-08-27T12:33:33.456Z</time>
      </trkpt>
      <trkpt lat="51.636392" lon="5.568671">
        <ele>8.317845</ele>
        <time>2026-08-27T12:33:36.308Z</time>
      </trkpt>
      <trkpt lat="51.636420" lon="5.572050">
        <ele>8.505988</ele>
        <time>2026-08-27T12:34:07.860Z</time>
      </trkpt>
      <trkpt lat="51.636400" lon="5.572320">
        <ele>8.517901</ele>
        <time>2026-08-27T12:34:10.392Z</time>
      </trkpt>
      <trkpt lat="51.635971" lon="5.573749">
        <ele>8.587442</ele>
        <time>2026-08-27T12:34:25.462Z</time>
      </trkpt>
      <trkpt lat="51.635859" lon="5.574102">
        <ele>8.604810</ele>
        <time>2026-08-27T12:34:29.242Z</time>
      </trkpt>
      <trkpt lat="51.635290" lon="5.576090">
        <ele>8.879900</ele>
        <time>2026-08-27T12:34:49.444Z</time>
      </trkpt>
      <trkpt lat="51.634953" lon="5.577255">
        <ele>9.133769</ele>
        <time>2026-08-27T12:35:02.732Z</time>
      </trkpt>
      <trkpt lat="51.634898" lon="5.577444">
        <ele>9.224885</ele>
        <time>2026-08-27T12:35:05.089Z</time>
      </trkpt>
      <trkpt lat="51.634671" lon="5.578230">
        <ele>9.603299</ele>
        <time>2026-08-27T12:35:14.970Z</time>
      </trkpt>
      <trkpt lat="51.634463" lon="5.578982">
        <ele>9.962669</ele>
        <time>2026-08-27T12:35:27.174Z</time>
      </trkpt>
      <trkpt lat="51.634303" lon="5.579552">
        <ele>10.235739</ele>
        <time>2026-08-27T12:35:36.160Z</time>
      </trkpt>
      <trkpt lat="51.634278" lon="5.579638">
        <ele>10.277192</ele>
        <time>2026-08-27T12:35:37.501Z</time>
      </trkpt>
      <trkpt lat="51.634204" lon="5.579900">
        <ele>10.285053</ele>
        <time>2026-08-27T12:35:41.428Z</time>
      </trkpt>
      <trkpt lat="51.634187" lon="5.579984">
        <ele>10.283378</ele>
        <time>2026-08-27T12:35:42.591Z</time>
      </trkpt>
      <trkpt lat="51.634165" lon="5.580070">
        <ele>10.281614</ele>
        <time>2026-08-27T12:35:43.854Z</time>
      </trkpt>
      <trkpt lat="51.634150" lon="5.580127">
        <ele>10.280440</ele>
        <time>2026-08-27T12:35:44.460Z</time>
      </trkpt>
      <trkpt lat="51.634041" lon="5.580538">
        <ele>10.271963</ele>
        <time>2026-08-27T12:35:48.673Z</time>
      </trkpt>
      <trkpt lat="51.633939" lon="5.580947">
        <ele>10.263604</ele>
        <time>2026-08-27T12:35:52.541Z</time>
      </trkpt>
      <trkpt lat="51.633804" lon="5.581486">
        <ele>10.252581</ele>
        <time>2026-08-27T12:35:57.509Z</time>
      </trkpt>
      <trkpt lat="51.633762" lon="5.581661">
        <ele>10.249023</ele>
        <time>2026-08-27T12:35:59.115Z</time>
      </trkpt>
      <trkpt lat="51.633389" lon="5.583197">
        <ele>10.151497</ele>
        <time>2026-08-27T12:36:13.464Z</time>
      </trkpt>
      <trkpt lat="51.633337" lon="5.583409">
        <ele>10.130579</ele>
        <time>2026-08-27T12:36:15.458Z</time>
      </trkpt>
      <trkpt lat="51.633285" lon="5.583623">
        <ele>10.109491</ele>
        <time>2026-08-27T12:36:18.223Z</time>
      </trkpt>
      <trkpt lat="51.633051" lon="5.584577">
        <ele>10.015361</ele>
        <time>2026-08-27T12:36:30.696Z</time>
      </trkpt>
      <trkpt lat="51.632875" lon="5.584459">
        <ele>9.987178</ele>
        <time>2026-08-27T12:36:34.561Z</time>
      </trkpt>
      <trkpt lat="51.632423" lon="5.584183">
        <ele>9.940764</ele>
        <time>2026-08-27T12:36:44.355Z</time>
      </trkpt>
      <trkpt lat="51.632175" lon="5.584174">
        <ele>9.921302</ele>
        <time>2026-08-27T12:36:49.312Z</time>
      </trkpt>
      <trkpt lat="51.632041" lon="5.584237">
        <ele>9.910350</ele>
        <time>2026-08-27T12:36:52.072Z</time>
      </trkpt>
      <trkpt lat="51.631851" lon="5.584394">
        <ele>9.893596</ele>
        <time>2026-08-27T12:36:56.292Z</time>
      </trkpt>
      <trkpt lat="51.631110" lon="5.585160">
        <ele>9.828547</ele>
        <time>2026-08-27T12:37:09.132Z</time>
      </trkpt>
      <trkpt lat="51.630337" lon="5.585959">
        <ele>9.840561</ele>
        <time>2026-08-27T12:37:22.435Z</time>
      </trkpt>
      <trkpt lat="51.630287" lon="5.586011">
        <ele>9.841339</ele>
        <time>2026-08-27T12:37:23.302Z</time>
      </trkpt>
      <trkpt lat="51.626432" lon="5.589901">
        <ele>10.034602</ele>
        <time>2026-08-27T12:38:31.938Z</time>
      </trkpt>
      <trkpt lat="51.626940" lon="5.591230">
        <ele>9.956333</ele>
        <time>2026-08-27T12:38:45.804Z</time>
      </trkpt>
      <trkpt lat="51.627103" lon="5.591876">
        <ele>9.921363</ele>
        <time>2026-08-27T12:38:51.990Z</time>
      </trkpt>
      <trkpt lat="51.628174" lon="5.596674">
        <ele>9.853436</ele>
        <time>2026-08-27T12:39:39.158Z</time>
      </trkpt>
      <trkpt lat="51.629110" lon="5.600840">
        <ele>9.689455</ele>
        <time>2026-08-27T12:40:18.874Z</time>
      </trkpt>
      <trkpt lat="51.629380" lon="5.602030">
        <ele>9.777292</ele>
        <time>2026-08-27T12:40:30.657Z</time>
      </trkpt>
      <trkpt lat="51.629450" lon="5.602230">
        <ele>9.793209</ele>
        <time>2026-08-27T12:40:32.839Z</time>
      </trkpt>
      <trkpt lat="51.631854" lon="5.605232">
        <ele>10.300699</ele>
        <time>2026-08-27T12:41:21.277Z</time>
      </trkpt>
      <trkpt lat="51.631970" lon="5.605517">
        <ele>10.294660</ele>
        <time>2026-08-27T12:41:24.490Z</time>
      </trkpt>
      <trkpt lat="51.632047" lon="5.605520">
        <ele>10.292461</ele>
        <time>2026-08-27T12:41:25.701Z</time>
      </trkpt>
      <trkpt lat="51.632173" lon="5.605596">
        <ele>10.288620</ele>
        <time>2026-08-27T12:41:27.678Z</time>
      </trkpt>
      <trkpt lat="51.633010" lon="5.606230">
        <ele>10.177792</ele>
        <time>2026-08-27T12:41:40.329Z</time>
      </trkpt>
      <trkpt lat="51.633179" lon="5.606393">
        <ele>10.096643</ele>
        <time>2026-08-27T12:41:42.827Z</time>
      </trkpt>
      <trkpt lat="51.633413" lon="5.606686">
        <ele>9.974546</ele>
        <time>2026-08-27T12:41:46.581Z</time>
      </trkpt>
      <trkpt lat="51.633786" lon="5.607352">
        <ele>9.745157</ele>
        <time>2026-08-27T12:41:53.837Z</time>
      </trkpt>
      <trkpt lat="51.633848" lon="5.607476">
        <ele>9.704440</ele>
        <time>2026-08-27T12:41:55.175Z</time>
      </trkpt>
      <trkpt lat="51.633861" lon="5.607512">
        <ele>9.693790</ele>
        <time>2026-08-27T12:41:55.524Z</time>
      </trkpt>
      <trkpt lat="51.633813" lon="5.607584">
        <ele>9.666770</ele>
        <time>2026-08-27T12:41:57.867Z</time>
      </trkpt>
      <trkpt lat="51.634913" lon="5.609734">
        <ele>9.608871</ele>
        <time>2026-08-27T12:42:33.123Z</time>
      </trkpt>
      <trkpt lat="51.635349" lon="5.610525">
        <ele>9.685732</ele>
        <time>2026-08-27T12:42:46.883Z</time>
      </trkpt>
      <trkpt lat="51.637216" lon="5.613097">
        <ele>10.198248</ele>
        <time>2026-08-27T12:43:38.707Z</time>
      </trkpt>
      <trkpt lat="51.637266" lon="5.613211">
        <ele>10.215716</ele>
        <time>2026-08-27T12:43:40.564Z</time>
      </trkpt>
      <trkpt lat="51.637237" lon="5.613498">
        <ele>10.252102</ele>
        <time>2026-08-27T12:43:44.391Z</time>
      </trkpt>
      <trkpt lat="51.636631" lon="5.614185">
        <ele>10.397760</ele>
        <time>2026-08-27T12:43:55.881Z</time>
      </trkpt>
      <trkpt lat="51.636105" lon="5.614954">
        <ele>10.518181</ele>
        <time>2026-08-27T12:44:06.895Z</time>
      </trkpt>
      <trkpt lat="51.635835" lon="5.615405">
        <ele>10.584119</ele>
        <time>2026-08-27T12:44:12.939Z</time>
      </trkpt>
      <trkpt lat="51.635796" lon="5.615525">
        <ele>10.598373</ele>
        <time>2026-08-27T12:44:14.232Z</time>
      </trkpt>
      <trkpt lat="51.635760" lon="5.615790">
        <ele>10.626919</ele>
        <time>2026-08-27T12:44:16.816Z</time>
      </trkpt>
      <trkpt lat="51.635795" lon="5.616251">
        <ele>10.675792</ele>
        <time>2026-08-27T12:44:21.265Z</time>
      </trkpt>
      <trkpt lat="51.636083" lon="5.618880">
        <ele>10.990549</ele>
        <time>2026-08-27T12:44:46.855Z</time>
      </trkpt>
      <trkpt lat="51.636127" lon="5.619665">
        <ele>11.169616</ele>
        <time>2026-08-27T12:44:54.774Z</time>
      </trkpt>
      <trkpt lat="51.636136" lon="5.620623">
        <ele>11.450240</ele>
        <time>2026-08-27T12:45:04.833Z</time>
      </trkpt>
      <trkpt lat="51.636204" lon="5.621365">
        <ele>11.669924</ele>
        <time>2026-08-27T12:45:12.874Z</time>
      </trkpt>
      <trkpt lat="51.636305" lon="5.621829">
        <ele>11.813942</ele>
        <time>2026-08-27T12:45:18.128Z</time>
      </trkpt>
      <trkpt lat="51.636802" lon="5.623360">
        <ele>12.136635</ele>
        <time>2026-08-27T12:45:35.356Z</time>
      </trkpt>
      <trkpt lat="51.637031" lon="5.624272">
        <ele>12.306210</ele>
        <time>2026-08-27T12:45:44.977Z</time>
      </trkpt>
      <trkpt lat="51.637126" lon="5.624794">
        <ele>12.409147</ele>
        <time>2026-08-27T12:45:50.290Z</time>
      </trkpt>
      <trkpt lat="51.637242" lon="5.625636">
        <ele>12.610184</ele>
        <time>2026-08-27T12:45:58.736Z</time>
      </trkpt>
      <trkpt lat="51.637636" lon="5.628323">
        <ele>13.322722</ele>
        <time>2026-08-27T12:46:27.154Z</time>
      </trkpt>
      <trkpt lat="51.638045" lon="5.630513">
        <ele>14.004490</ele>
        <time>2026-08-27T12:46:51.299Z</time>
      </trkpt>
      <trkpt lat="51.638338" lon="5.632029">
        <ele>14.312209</ele>
        <time>2026-08-27T12:47:06.796Z</time>
      </trkpt>
      <trkpt lat="51.639162" lon="5.636250">
        <ele>15.244928</ele>
        <time>2026-08-27T12:47:51.190Z</time>
      </trkpt>
      <trkpt lat="51.639481" lon="5.637876">
        <ele>15.665983</ele>
        <time>2026-08-27T12:48:09.288Z</time>
      </trkpt>
      <trkpt lat="51.639878" lon="5.639937">
        <ele>16.016840</ele>
        <time>2026-08-27T12:48:30.008Z</time>
      </trkpt>
      <trkpt lat="51.640212" lon="5.641443">
        <ele>16.209514</ele>
        <time>2026-08-27T12:48:45.338Z</time>
      </trkpt>
      <trkpt lat="51.640547" lon="5.642543">
        <ele>16.349052</ele>
        <time>2026-08-27T12:48:57.467Z</time>
      </trkpt>
      <trkpt lat="51.640703" lon="5.643023">
        <ele>16.410757</ele>
        <time>2026-08-27T12:49:02.846Z</time>
      </trkpt>
      <trkpt lat="51.641680" lon="5.646087">
        <ele>16.595797</ele>
        <time>2026-08-27T12:49:34.856Z</time>
      </trkpt>
      <trkpt lat="51.641787" lon="5.646602">
        <ele>16.619780</ele>
        <time>2026-08-27T12:49:39.935Z</time>
      </trkpt>
      <trkpt lat="51.641840" lon="5.647208">
        <ele>16.683122</ele>
        <time>2026-08-27T12:49:45.669Z</time>
      </trkpt>
      <trkpt lat="51.641821" lon="5.647868">
        <ele>16.751506</ele>
        <time>2026-08-27T12:49:52.041Z</time>
      </trkpt>
      <trkpt lat="51.641711" lon="5.648888">
        <ele>16.858659</ele>
        <time>2026-08-27T12:50:02.107Z</time>
      </trkpt>
      <trkpt lat="51.641701" lon="5.649652">
        <ele>17.004181</ele>
        <time>2026-08-27T12:50:09.581Z</time>
      </trkpt>
      <trkpt lat="51.641704" lon="5.649776">
        <ele>17.046437</ele>
        <time>2026-08-27T12:50:10.838Z</time>
      </trkpt>
      <trkpt lat="51.641657" lon="5.649822">
        <ele>17.076610</ele>
        <time>2026-08-27T12:50:11.733Z</time>
      </trkpt>
      <trkpt lat="51.641639" lon="5.649950">
        <ele>17.121301</ele>
        <time>2026-08-27T12:50:13.078Z</time>
      </trkpt>
      <trkpt lat="51.641693" lon="5.650047">
        <ele>17.165674</ele>
        <time>2026-08-27T12:50:14.407Z</time>
      </trkpt>
      <trkpt lat="51.641748" lon="5.650051">
        <ele>17.195883</ele>
        <time>2026-08-27T12:50:15.329Z</time>
      </trkpt>
      <trkpt lat="51.641775" lon="5.650285">
        <ele>17.276929</ele>
        <time>2026-08-27T12:50:18.604Z</time>
      </trkpt>
      <trkpt lat="51.641986" lon="5.651862">
        <ele>17.826257</ele>
        <time>2026-08-27T12:50:41.458Z</time>
      </trkpt>
      <trkpt lat="51.642033" lon="5.652178">
        <ele>17.954639</ele>
        <time>2026-08-27T12:50:46.130Z</time>
      </trkpt>
      <trkpt lat="51.642174" lon="5.652713">
        <ele>18.237674</ele>
        <time>2026-08-27T12:50:54.563Z</time>
      </trkpt>
      <trkpt lat="51.642449" lon="5.653289">
        <ele>18.591553</ele>
        <time>2026-08-27T12:51:05.176Z</time>
      </trkpt>
      <trkpt lat="51.642579" lon="5.653469">
        <ele>18.726043</ele>
        <time>2026-08-27T12:51:09.187Z</time>
      </trkpt>
      <trkpt lat="51.643179" lon="5.654106">
        <ele>19.289837</ele>
        <time>2026-08-27T12:51:26.225Z</time>
      </trkpt>
      <trkpt lat="51.643377" lon="5.654353">
        <ele>19.397997</ele>
        <time>2026-08-27T12:51:31.887Z</time>
      </trkpt>
      <trkpt lat="51.643466" lon="5.654465">
        <ele>19.442961</ele>
        <time>2026-08-27T12:51:34.332Z</time>
      </trkpt>
      <trkpt lat="51.643533" lon="5.654546">
        <ele>19.476313</ele>
        <time>2026-08-27T12:51:36.124Z</time>
      </trkpt>
      <trkpt lat="51.643758" lon="5.655347">
        <ele>19.693569</ele>
        <time>2026-08-27T12:51:48.421Z</time>
      </trkpt>
      <trkpt lat="51.643986" lon="5.656156">
        <ele>19.913117</ele>
        <time>2026-08-27T12:52:00.301Z</time>
      </trkpt>
      <trkpt lat="51.644062" lon="5.656394">
        <ele>19.979254</ele>
        <time>2026-08-27T12:52:03.706Z</time>
      </trkpt>
      <trkpt lat="51.644163" lon="5.656475">
        <ele>20.023251</ele>
        <time>2026-08-27T12:52:05.943Z</time>
      </trkpt>
      <trkpt lat="51.644107" lon="5.656676">
        <ele>20.026115</ele>
        <time>2026-08-27T12:52:08.624Z</time>
      </trkpt>
      <trkpt lat="51.644044" lon="5.656938">
        <ele>20.029768</ele>
        <time>2026-08-27T12:52:11.988Z</time>
      </trkpt>
      <trkpt lat="51.644003" lon="5.657240">
        <ele>20.033788</ele>
        <time>2026-08-27T12:52:15.713Z</time>
      </trkpt>
      <trkpt lat="51.643993" lon="5.657510">
        <ele>20.037304</ele>
        <time>2026-08-27T12:52:19.067Z</time>
      </trkpt>
      <trkpt lat="51.644024" lon="5.658079">
        <ele>20.044731</ele>
        <time>2026-08-27T12:52:26.325Z</time>
      </trkpt>
      <trkpt lat="51.644139" lon="5.660174">
        <ele>20.121630</ele>
        <time>2026-08-27T12:52:52.989Z</time>
      </trkpt>
      <trkpt lat="51.644196" lon="5.661560">
        <ele>20.219658</ele>
        <time>2026-08-27T12:53:11.146Z</time>
      </trkpt>
      <trkpt lat="51.644206" lon="5.661779">
        <ele>20.235155</ele>
        <time>2026-08-27T12:53:13.228Z</time>
      </trkpt>
      <trkpt lat="51.644136" lon="5.661895">
        <ele>20.246574</ele>
        <time>2026-08-27T12:53:14.764Z</time>
      </trkpt>
      <trkpt lat="51.644153" lon="5.662285">
        <ele>20.278789</ele>
        <time>2026-08-27T12:53:18.474Z</time>
      </trkpt>
      <trkpt lat="51.644191" lon="5.663172">
        <ele>20.374779</ele>
        <time>2026-08-27T12:53:26.764Z</time>
      </trkpt>
      <trkpt lat="51.644220" lon="5.664539">
        <ele>20.522448</ele>
        <time>2026-08-27T12:53:39.943Z</time>
      </trkpt>
      <trkpt lat="51.644196" lon="5.665365">
        <ele>20.589539</ele>
        <time>2026-08-27T12:53:47.980Z</time>
      </trkpt>
      <trkpt lat="51.644178" lon="5.665872">
        <ele>20.607907</ele>
        <time>2026-08-27T12:53:53.095Z</time>
      </trkpt>
      <trkpt lat="51.644148" lon="5.666730">
        <ele>20.638990</ele>
        <time>2026-08-27T12:54:01.775Z</time>
      </trkpt>
      <trkpt lat="51.644141" lon="5.667069">
        <ele>20.651259</ele>
        <time>2026-08-27T12:54:05.034Z</time>
      </trkpt>
      <trkpt lat="51.644091" lon="5.667313">
        <ele>20.660553</ele>
        <time>2026-08-27T12:54:07.384Z</time>
      </trkpt>
      <trkpt lat="51.644097" lon="5.667410">
        <ele>20.664079</ele>
        <time>2026-08-27T12:54:08.244Z</time>
      </trkpt>
      <trkpt lat="51.644116" lon="5.667437">
        <ele>20.665556</ele>
        <time>2026-08-27T12:54:08.593Z</time>
      </trkpt>
      <trkpt lat="51.644452" lon="5.668190">
        <ele>20.555095</ele>
        <time>2026-08-27T12:54:16.216Z</time>
      </trkpt>
      <trkpt lat="51.644704" lon="5.668682">
        <ele>20.369184</ele>
        <time>2026-08-27T12:54:21.410Z</time>
      </trkpt>
      <trkpt lat="51.644817" lon="5.668952">
        <ele>20.274278</ele>
        <time>2026-08-27T12:54:24.010Z</time>
      </trkpt>
      <trkpt lat="51.644879" lon="5.669395">
        <ele>20.141938</ele>
        <time>2026-08-27T12:54:27.606Z</time>
      </trkpt>
      <trkpt lat="51.644964" lon="5.670266">
        <ele>19.884994</ele>
        <time>2026-08-27T12:54:34.655Z</time>
      </trkpt>
      <trkpt lat="51.645187" lon="5.672588">
        <ele>19.966656</ele>
        <time>2026-08-27T12:55:05.136Z</time>
      </trkpt>
      <trkpt lat="51.645271" lon="5.672887">
        <ele>19.985858</ele>
        <time>2026-08-27T12:55:09.461Z</time>
      </trkpt>
      <trkpt lat="51.645227" lon="5.672968">
        <ele>19.992157</ele>
        <time>2026-08-27T12:55:10.864Z</time>
      </trkpt>
      <trkpt lat="51.645197" lon="5.673095">
        <ele>20.000107</ele>
        <time>2026-08-27T12:55:12.647Z</time>
      </trkpt>
      <trkpt lat="51.645194" lon="5.673208">
        <ele>20.006724</ele>
        <time>2026-08-27T12:55:14.115Z</time>
      </trkpt>
      <trkpt lat="51.645215" lon="5.673347">
        <ele>20.008979</ele>
        <time>2026-08-27T12:55:15.982Z</time>
      </trkpt>
      <trkpt lat="51.645301" lon="5.673502">
        <ele>20.010505</ele>
        <time>2026-08-27T12:55:18.678Z</time>
      </trkpt>
      <trkpt lat="51.645327" lon="5.673858">
        <ele>20.013137</ele>
        <time>2026-08-27T12:55:23.300Z</time>
      </trkpt>
      <trkpt lat="51.645414" lon="5.674215">
        <ele>20.015953</ele>
        <time>2026-08-27T12:55:28.196Z</time>
      </trkpt>
      <trkpt lat="51.645883" lon="5.679340">
        <ele>19.931213</ele>
        <time>2026-08-27T12:56:14.959Z</time>
      </trkpt>
      <trkpt lat="51.645877" lon="5.679771">
        <ele>19.937995</ele>
        <time>2026-08-27T12:56:18.895Z</time>
      </trkpt>
      <trkpt lat="51.645831" lon="5.680212">
        <ele>19.945030</ele>
        <time>2026-08-27T12:56:22.968Z</time>
      </trkpt>
      <trkpt lat="51.645738" lon="5.680672">
        <ele>19.952641</ele>
        <time>2026-08-27T12:56:27.423Z</time>
      </trkpt>
      <trkpt lat="51.645303" lon="5.681970">
        <ele>20.014439</ele>
        <time>2026-08-27T12:56:41.464Z</time>
      </trkpt>
      <trkpt lat="51.645174" lon="5.682440">
        <ele>20.073193</ele>
        <time>2026-08-27T12:56:46.406Z</time>
      </trkpt>
      <trkpt lat="51.645088" lon="5.683084">
        <ele>20.148504</ele>
        <time>2026-08-27T12:56:52.800Z</time>
      </trkpt>
      <trkpt lat="51.645091" lon="5.683675">
        <ele>20.216072</ele>
        <time>2026-08-27T12:56:58.543Z</time>
      </trkpt>
      <trkpt lat="51.645342" lon="5.686517">
        <ele>20.512340</ele>
        <time>2026-08-27T12:57:26.369Z</time>
      </trkpt>
      <trkpt lat="51.645377" lon="5.686993">
        <ele>20.559947</ele>
        <time>2026-08-27T12:57:31.018Z</time>
      </trkpt>
      <trkpt lat="51.645596" lon="5.690494">
        <ele>20.653407</ele>
        <time>2026-08-27T12:58:03.422Z</time>
      </trkpt>
      <trkpt lat="51.645911" lon="5.691720">
        <ele>20.803308</ele>
        <time>2026-08-27T12:58:16.121Z</time>
      </trkpt>
      <trkpt lat="51.645988" lon="5.691978">
        <ele>20.835650</ele>
        <time>2026-08-27T12:58:18.989Z</time>
      </trkpt>
      <trkpt lat="51.646078" lon="5.692177">
        <ele>20.863467</ele>
        <time>2026-08-27T12:58:21.406Z</time>
      </trkpt>
      <trkpt lat="51.646171" lon="5.692306">
        <ele>20.885806</ele>
        <time>2026-08-27T12:58:23.304Z</time>
      </trkpt>
      <trkpt lat="51.646397" lon="5.692483">
        <ele>20.931551</ele>
        <time>2026-08-27T12:58:27.263Z</time>
      </trkpt>
      <trkpt lat="51.646482" lon="5.692597">
        <ele>20.951916</ele>
        <time>2026-08-27T12:58:29.008Z</time>
      </trkpt>
      <trkpt lat="51.646436" lon="5.692713">
        <ele>20.967924</ele>
        <time>2026-08-27T12:58:30.359Z</time>
      </trkpt>
      <trkpt lat="51.646442" lon="5.692851">
        <ele>20.984011</ele>
        <time>2026-08-27T12:58:31.753Z</time>
      </trkpt>
      <trkpt lat="51.646411" lon="5.693163">
        <ele>21.020755</ele>
        <time>2026-08-27T12:58:34.912Z</time>
      </trkpt>
      <trkpt lat="51.646342" lon="5.693351">
        <ele>21.046155</ele>
        <time>2026-08-27T12:58:37.084Z</time>
      </trkpt>
      <trkpt lat="51.646276" lon="5.693611">
        <ele>21.078822</ele>
        <time>2026-08-27T12:58:39.819Z</time>
      </trkpt>
      <trkpt lat="51.646242" lon="5.693746">
        <ele>21.095765</ele>
        <time>2026-08-27T12:58:41.241Z</time>
      </trkpt>
      <trkpt lat="51.646042" lon="5.694670">
        <ele>21.209564</ele>
        <time>2026-08-27T12:58:50.379Z</time>
      </trkpt>
      <trkpt lat="51.645829" lon="5.695679">
        <ele>21.360599</ele>
        <time>2026-08-27T12:59:00.679Z</time>
      </trkpt>
      <trkpt lat="51.645705" lon="5.696263">
        <ele>21.469325</ele>
        <time>2026-08-27T12:59:06.659Z</time>
      </trkpt>
      <trkpt lat="51.645591" lon="5.696802">
        <ele>21.569633</ele>
        <time>2026-08-27T12:59:12.352Z</time>
      </trkpt>
      <trkpt lat="51.645576" lon="5.696871">
        <ele>21.582512</ele>
        <time>2026-08-27T12:59:13.099Z</time>
      </trkpt>
      <trkpt lat="51.645500" lon="5.697235">
        <ele>21.650162</ele>
        <time>2026-08-27T12:59:17.110Z</time>
      </trkpt>
      <trkpt lat="51.645362" lon="5.697885">
        <ele>21.771175</ele>
        <time>2026-08-27T12:59:24.166Z</time>
      </trkpt>
      <trkpt lat="51.645199" lon="5.698646">
        <ele>21.823240</ele>
        <time>2026-08-27T12:59:32.078Z</time>
      </trkpt>
      <trkpt lat="51.644634" lon="5.701285">
        <ele>21.913554</ele>
        <time>2026-08-27T13:00:06.986Z</time>
      </trkpt>
      <trkpt lat="51.644498" lon="5.701929">
        <ele>21.900187</ele>
        <time>2026-08-27T13:00:15.293Z</time>
      </trkpt>
      <trkpt lat="51.644266" lon="5.703031">
        <ele>21.877323</ele>
        <time>2026-08-27T13:00:29.636Z</time>
      </trkpt>
      <trkpt lat="51.644238" lon="5.703229">
        <ele>21.873333</ele>
        <time>2026-08-27T13:00:32.226Z</time>
      </trkpt>
      <trkpt lat="51.644287" lon="5.703365">
        <ele>21.870243</ele>
        <time>2026-08-27T13:00:34.234Z</time>
      </trkpt>
      <trkpt lat="51.644177" lon="5.703529">
        <ele>21.880644</ele>
        <time>2026-08-27T13:00:37.338Z</time>
      </trkpt>
      <trkpt lat="51.644093" lon="5.703906">
        <ele>21.919314</ele>
        <time>2026-08-27T13:00:42.508Z</time>
      </trkpt>
      <trkpt lat="51.644063" lon="5.704052">
        <ele>21.934161</ele>
        <time>2026-08-27T13:00:44.507Z</time>
      </trkpt>
      <trkpt lat="51.643931" lon="5.704682">
        <ele>21.998354</ele>
        <time>2026-08-27T13:00:53.456Z</time>
      </trkpt>
      <trkpt lat="51.643755" lon="5.705516">
        <ele>22.083397</ele>
        <time>2026-08-27T13:01:05.052Z</time>
      </trkpt>
      <trkpt lat="51.643699" lon="5.705903">
        <ele>22.121760</ele>
        <time>2026-08-27T13:01:08.891Z</time>
      </trkpt>
      <trkpt lat="51.643568" lon="5.706496">
        <ele>22.112598</ele>
        <time>2026-08-27T13:01:14.591Z</time>
      </trkpt>
      <trkpt lat="51.643506" lon="5.706597">
        <ele>22.098634</ele>
        <time>2026-08-27T13:01:15.845Z</time>
      </trkpt>
      <trkpt lat="51.643281" lon="5.707635">
        <ele>21.990565</ele>
        <time>2026-08-27T13:01:25.402Z</time>
      </trkpt>
      <trkpt lat="51.643244" lon="5.707837">
        <ele>21.969864</ele>
        <time>2026-08-27T13:01:27.153Z</time>
      </trkpt>
      <trkpt lat="51.642756" lon="5.710127">
        <ele>21.622167</ele>
        <time>2026-08-27T13:01:48.297Z</time>
      </trkpt>
      <trkpt lat="51.642374" lon="5.711896">
        <ele>21.317946</ele>
        <time>2026-08-27T13:02:04.183Z</time>
      </trkpt>
      <trkpt lat="51.642203" lon="5.712712">
        <ele>21.257166</ele>
        <time>2026-08-27T13:02:11.379Z</time>
      </trkpt>
      <trkpt lat="51.639579" lon="5.725081">
        <ele>20.401722</ele>
        <time>2026-08-27T13:04:09.109Z</time>
      </trkpt>
      <trkpt lat="51.639094" lon="5.727323">
        <ele>20.178881</ele>
        <time>2026-08-27T13:04:30.619Z</time>
      </trkpt>
      <trkpt lat="51.638242" lon="5.731325">
        <ele>19.432712</ele>
        <time>2026-08-27T13:05:06.153Z</time>
      </trkpt>
      <trkpt lat="51.636936" lon="5.737452">
        <ele>19.420404</ele>
        <time>2026-08-27T13:06:05.902Z</time>
      </trkpt>
      <trkpt lat="51.635460" lon="5.744390">
        <ele>20.237979</ele>
        <time>2026-08-27T13:07:17.157Z</time>
      </trkpt>
      <trkpt lat="51.635400" lon="5.744860">
        <ele>20.237442</ele>
        <time>2026-08-27T13:07:22.112Z</time>
      </trkpt>
      <trkpt lat="51.635390" lon="5.745410">
        <ele>20.211983</ele>
        <time>2026-08-27T13:07:27.359Z</time>
      </trkpt>
      <trkpt lat="51.635478" lon="5.746125">
        <ele>20.178256</ele>
        <time>2026-08-27T13:07:34.051Z</time>
      </trkpt>
      <trkpt lat="51.635507" lon="5.746512">
        <ele>20.160220</ele>
        <time>2026-08-27T13:07:37.527Z</time>
      </trkpt>
      <trkpt lat="51.635516" lon="5.746757">
        <ele>20.148864</ele>
        <time>2026-08-27T13:07:39.652Z</time>
      </trkpt>
      <trkpt lat="51.635525" lon="5.746866">
        <ele>20.143777</ele>
        <time>2026-08-27T13:07:40.926Z</time>
      </trkpt>
      <trkpt lat="51.633557" lon="5.747579">
        <ele>19.356992</ele>
        <time>2026-08-27T13:08:07.529Z</time>
      </trkpt>
      <trkpt lat="51.632950" lon="5.747865">
        <ele>19.313039</ele>
        <time>2026-08-27T13:08:16.432Z</time>
      </trkpt>
      <trkpt lat="51.632875" lon="5.747895">
        <ele>19.313146</ele>
        <time>2026-08-27T13:08:17.542Z</time>
      </trkpt>
      <trkpt lat="51.632730" lon="5.747948">
        <ele>19.313350</ele>
        <time>2026-08-27T13:08:20.549Z</time>
      </trkpt>
      <trkpt lat="51.632776" lon="5.748131">
        <ele>19.313519</ele>
        <time>2026-08-27T13:08:23.110Z</time>
      </trkpt>
      <trkpt lat="51.632886" lon="5.748363">
        <ele>19.313768</ele>
        <time>2026-08-27T13:08:26.929Z</time>
      </trkpt>
      <trkpt lat="51.632989" lon="5.748846">
        <ele>19.314204</ele>
        <time>2026-08-27T13:08:33.602Z</time>
      </trkpt>
      <trkpt lat="51.633096" lon="5.749155">
        <ele>19.314506</ele>
        <time>2026-08-27T13:08:38.197Z</time>
      </trkpt>
      <trkpt lat="51.633199" lon="5.749527">
        <ele>19.320143</ele>
        <time>2026-08-27T13:08:42.104Z</time>
      </trkpt>
      <trkpt lat="51.633269" lon="5.749709">
        <ele>19.333477</ele>
        <time>2026-08-27T13:08:47.137Z</time>
      </trkpt>
      <trkpt lat="51.635120" lon="5.754276">
        <ele>19.607642</ele>
        <time>2026-08-27T13:09:38.403Z</time>
      </trkpt>
      <trkpt lat="51.635711" lon="5.755753">
        <ele>19.708934</ele>
        <time>2026-08-27T13:09:54.970Z</time>
      </trkpt>
      <trkpt lat="51.637250" lon="5.759600">
        <ele>19.917319</ele>
        <time>2026-08-27T13:10:38.215Z</time>
      </trkpt>
      <trkpt lat="51.637598" lon="5.760372">
        <ele>19.872296</ele>
        <time>2026-08-27T13:10:46.682Z</time>
      </trkpt>
      <trkpt lat="51.637883" lon="5.761043">
        <ele>19.833929</ele>
        <time>2026-08-27T13:10:53.836Z</time>
      </trkpt>
      <trkpt lat="51.640332" lon="5.767334">
        <ele>19.663791</ele>
        <time>2026-08-27T13:12:01.500Z</time>
      </trkpt>
      <trkpt lat="51.644897" lon="5.778651">
        <ele>18.988747</ele>
        <time>2026-08-27T13:14:03.178Z</time>
      </trkpt>
      <trkpt lat="51.644963" lon="5.778814">
        <ele>18.968359</ele>
        <time>2026-08-27T13:14:04.901Z</time>
      </trkpt>
      <trkpt lat="51.648089" lon="5.786342">
        <ele>18.011305</ele>
        <time>2026-08-27T13:15:24.687Z</time>
      </trkpt>
      <trkpt lat="51.649634" lon="5.790008">
        <ele>17.739371</ele>
        <time>2026-08-27T13:16:03.766Z</time>
      </trkpt>
      <trkpt lat="51.650757" lon="5.792506">
        <ele>17.897232</ele>
        <time>2026-08-27T13:16:33.784Z</time>
      </trkpt>
      <trkpt lat="51.651015" lon="5.793047">
        <ele>17.938623</ele>
        <time>2026-08-27T13:16:40.047Z</time>
      </trkpt>
      <trkpt lat="51.651051" lon="5.793125">
        <ele>17.927733</ele>
        <time>2026-08-27T13:16:40.920Z</time>
      </trkpt>
      <trkpt lat="51.652185" lon="5.795422">
        <ele>17.599673</ele>
        <time>2026-08-27T13:17:06.536Z</time>
      </trkpt>
      <trkpt lat="51.653126" lon="5.797455">
        <ele>17.325545</ele>
        <time>2026-08-27T13:17:28.673Z</time>
      </trkpt>
      <trkpt lat="51.654169" lon="5.799789">
        <ele>17.458857</ele>
        <time>2026-08-27T13:17:56.552Z</time>
      </trkpt>
      <trkpt lat="51.655807" lon="5.803451">
        <ele>16.592869</ele>
        <time>2026-08-27T13:18:35.061Z</time>
      </trkpt>
      <trkpt lat="51.655979" lon="5.803814">
        <ele>16.467472</ele>
        <time>2026-08-27T13:18:38.829Z</time>
      </trkpt>
      <trkpt lat="51.656303" lon="5.804316">
        <ele>16.268602</ele>
        <time>2026-08-27T13:18:44.743Z</time>
      </trkpt>
      <trkpt lat="51.657007" lon="5.805398">
        <ele>15.701994</ele>
        <time>2026-08-27T13:18:57.318Z</time>
      </trkpt>
      <trkpt lat="51.657161" lon="5.805701">
        <ele>15.552625</ele>
        <time>2026-08-27T13:19:00.423Z</time>
      </trkpt>
      <trkpt lat="51.657305" lon="5.806169">
        <ele>15.353419</ele>
        <time>2026-08-27T13:19:04.581Z</time>
      </trkpt>
      <trkpt lat="51.657419" lon="5.806735">
        <ele>15.126497</ele>
        <time>2026-08-27T13:19:09.347Z</time>
      </trkpt>
      <trkpt lat="51.657869" lon="5.808609">
        <ele>14.569279</ele>
        <time>2026-08-27T13:19:26.011Z</time>
      </trkpt>
      <trkpt lat="51.658185" lon="5.809983">
        <ele>14.227264</ele>
        <time>2026-08-27T13:19:38.433Z</time>
      </trkpt>
      <trkpt lat="51.658330" lon="5.810917">
        <ele>14.081537</ele>
        <time>2026-08-27T13:19:46.688Z</time>
      </trkpt>
      <trkpt lat="51.658418" lon="5.811781">
        <ele>13.949014</ele>
        <time>2026-08-27T13:19:54.179Z</time>
      </trkpt>
      <trkpt lat="51.658411" lon="5.812628">
        <ele>13.850720</ele>
        <time>2026-08-27T13:20:01.600Z</time>
      </trkpt>
      <trkpt lat="51.658389" lon="5.812944">
        <ele>13.841217</ele>
        <time>2026-08-27T13:20:04.497Z</time>
      </trkpt>
      <trkpt lat="51.658377" lon="5.813128">
        <ele>13.835687</ele>
        <time>2026-08-27T13:20:06.203Z</time>
      </trkpt>
      <trkpt lat="51.658416" lon="5.813646">
        <ele>13.820093</ele>
        <time>2026-08-27T13:20:11.052Z</time>
      </trkpt>
      <trkpt lat="51.658406" lon="5.814264">
        <ele>13.801618</ele>
        <time>2026-08-27T13:20:16.757Z</time>
      </trkpt>
      <trkpt lat="51.658373" lon="5.814617">
        <ele>13.790949</ele>
        <time>2026-08-27T13:20:19.999Z</time>
      </trkpt>
      <trkpt lat="51.658366" lon="5.814744">
        <ele>13.787139</ele>
        <time>2026-08-27T13:20:21.166Z</time>
      </trkpt>
      <trkpt lat="51.658264" lon="5.815834">
        <ele>13.792924</ele>
        <time>2026-08-27T13:20:31.262Z</time>
      </trkpt>
      <trkpt lat="51.658279" lon="5.815920">
        <ele>13.796254</ele>
        <time>2026-08-27T13:20:32.072Z</time>
      </trkpt>
      <trkpt lat="51.658406" lon="5.816022">
        <ele>13.804779</ele>
        <time>2026-08-27T13:20:34.902Z</time>
      </trkpt>
      <trkpt lat="51.658621" lon="5.816774">
        <ele>13.835639</ele>
        <time>2026-08-27T13:20:45.087Z</time>
      </trkpt>
      <trkpt lat="51.658912" lon="5.817797">
        <ele>13.877584</ele>
        <time>2026-08-27T13:20:59.672Z</time>
      </trkpt>
      <trkpt lat="51.658981" lon="5.817843">
        <ele>13.886331</ele>
        <time>2026-08-27T13:21:01.279Z</time>
      </trkpt>
      <trkpt lat="51.659022" lon="5.817978">
        <ele>13.901196</ele>
        <time>2026-08-27T13:21:02.811Z</time>
      </trkpt>
      <trkpt lat="51.658724" lon="5.818218">
        <ele>13.954299</ele>
        <time>2026-08-27T13:21:08.442Z</time>
      </trkpt>
      <trkpt lat="51.658287" lon="5.818648">
        <ele>14.035915</ele>
        <time>2026-08-27T13:21:17.117Z</time>
      </trkpt>
      <trkpt lat="51.657897" lon="5.819098">
        <ele>14.112372</ele>
        <time>2026-08-27T13:21:24.619Z</time>
      </trkpt>
      <trkpt lat="51.657730" lon="5.819348">
        <ele>14.148703</ele>
        <time>2026-08-27T13:21:27.896Z</time>
      </trkpt>
      <trkpt lat="51.658472" lon="5.820840">
        <ele>13.481736</ele>
        <time>2026-08-27T13:21:49.049Z</time>
      </trkpt>
      <trkpt lat="51.658634" lon="5.821420">
        <ele>13.230815</ele>
        <time>2026-08-27T13:21:56.044Z</time>
      </trkpt>
      <trkpt lat="51.658655" lon="5.821499">
        <ele>13.196911</ele>
        <time>2026-08-27T13:21:57.016Z</time>
      </trkpt>
      <trkpt lat="51.658677" lon="5.821584">
        <ele>13.160578</ele>
        <time>2026-08-27T13:21:58.056Z</time>
      </trkpt>
      <trkpt lat="51.658707" lon="5.821649">
        <ele>13.128619</ele>
        <time>2026-08-27T13:21:58.967Z</time>
      </trkpt>
      <trkpt lat="51.658826" lon="5.821897">
        <ele>13.017502</ele>
        <time>2026-08-27T13:22:01.524Z</time>
      </trkpt>
      <trkpt lat="51.659030" lon="5.822210">
        <ele>12.966858</ele>
        <time>2026-08-27T13:22:05.329Z</time>
      </trkpt>
      <trkpt lat="51.659159" lon="5.822353">
        <ele>12.938705</ele>
        <time>2026-08-27T13:22:07.502Z</time>
      </trkpt>
      <trkpt lat="51.659387" lon="5.822597">
        <ele>12.889492</ele>
        <time>2026-08-27T13:22:11.467Z</time>
      </trkpt>
      <trkpt lat="51.659537" lon="5.822712">
        <ele>12.859623</ele>
        <time>2026-08-27T13:22:13.993Z</time>
      </trkpt>
      <trkpt lat="51.659920" lon="5.822889">
        <ele>12.787976</ele>
        <time>2026-08-27T13:22:20.245Z</time>
      </trkpt>
      <trkpt lat="51.660210" lon="5.823030">
        <ele>12.733506</ele>
        <time>2026-08-27T13:22:24.721Z</time>
      </trkpt>
      <trkpt lat="51.660525" lon="5.823252">
        <ele>12.626684</ele>
        <time>2026-08-27T13:22:29.477Z</time>
      </trkpt>
      <trkpt lat="51.660697" lon="5.823451">
        <ele>12.525926</ele>
        <time>2026-08-27T13:22:32.335Z</time>
      </trkpt>
      <trkpt lat="51.660810" lon="5.823636">
        <ele>12.449277</ele>
        <time>2026-08-27T13:22:34.477Z</time>
      </trkpt>
      <trkpt lat="51.660915" lon="5.823881">
        <ele>12.361364</ele>
        <time>2026-08-27T13:22:36.913Z</time>
      </trkpt>
      <trkpt lat="51.660919" lon="5.823978">
        <ele>12.332665</ele>
        <time>2026-08-27T13:22:37.698Z</time>
      </trkpt>
      <trkpt lat="51.661025" lon="5.824101">
        <ele>12.270508</ele>
        <time>2026-08-27T13:22:39.399Z</time>
      </trkpt>
      <trkpt lat="51.661660" lon="5.825351">
        <ele>11.805541</ele>
        <time>2026-08-27T13:22:52.218Z</time>
      </trkpt>
      <trkpt lat="51.664231" lon="5.830344">
        <ele>10.732167</ele>
        <time>2026-08-27T13:23:47.812Z</time>
      </trkpt>
      <trkpt lat="51.664403" lon="5.830730">
        <ele>10.766440</ele>
        <time>2026-08-27T13:23:52.394Z</time>
      </trkpt>
      <trkpt lat="51.664798" lon="5.831751">
        <ele>10.853213</ele>
        <time>2026-08-27T13:24:04.449Z</time>
      </trkpt>
      <trkpt lat="51.664546" lon="5.831988">
        <ele>10.901157</ele>
        <time>2026-08-27T13:24:09.310Z</time>
      </trkpt>
      <trkpt lat="51.663586" lon="5.833339">
        <ele>11.319633</ele>
        <time>2026-08-27T13:24:30.108Z</time>
      </trkpt>
      <trkpt lat="51.662810" lon="5.834532">
        <ele>11.521793</ele>
        <time>2026-08-27T13:24:46.749Z</time>
      </trkpt>
      <trkpt lat="51.661823" lon="5.836230">
        <ele>11.626635</ele>
        <time>2026-08-27T13:25:08.258Z</time>
      </trkpt>
      <trkpt lat="51.661397" lon="5.836676">
        <ele>11.636734</ele>
        <time>2026-08-27T13:25:15.960Z</time>
      </trkpt>
      <trkpt lat="51.660567" lon="5.837328">
        <ele>11.655091</ele>
        <time>2026-08-27T13:25:30.002Z</time>
      </trkpt>
      <trkpt lat="51.659892" lon="5.837835">
        <ele>11.470717</ele>
        <time>2026-08-27T13:25:40.603Z</time>
      </trkpt>
      <trkpt lat="51.659636" lon="5.837905">
        <ele>11.394577</ele>
        <time>2026-08-27T13:25:44.139Z</time>
      </trkpt>
      <trkpt lat="51.659397" lon="5.838218">
        <ele>11.304281</ele>
        <time>2026-08-27T13:25:48.279Z</time>
      </trkpt>
      <trkpt lat="51.659610" lon="5.838460">
        <ele>11.227869</ele>
        <time>2026-08-27T13:25:51.748Z</time>
      </trkpt>
      <trkpt lat="51.659870" lon="5.838820">
        <ele>11.126822</ele>
        <time>2026-08-27T13:25:56.275Z</time>
      </trkpt>
      <trkpt lat="51.660900" lon="5.840720">
        <ele>10.566427</ele>
        <time>2026-08-27T13:26:17.511Z</time>
      </trkpt>
      <trkpt lat="51.661110" lon="5.841010">
        <ele>10.480571</ele>
        <time>2026-08-27T13:26:21.406Z</time>
      </trkpt>
      <trkpt lat="51.661270" lon="5.841160">
        <ele>10.461521</ele>
        <time>2026-08-27T13:26:24.030Z</time>
      </trkpt>
      <trkpt lat="51.663840" lon="5.844090">
        <ele>10.250794</ele>
        <time>2026-08-27T13:27:09.971Z</time>
      </trkpt>
      <trkpt lat="51.666194" lon="5.846779">
        <ele>10.387150</ele>
        <time>2026-08-27T13:27:53.940Z</time>
      </trkpt>
      <trkpt lat="51.666279" lon="5.846876">
        <ele>10.384525</ele>
        <time>2026-08-27T13:27:55.450Z</time>
      </trkpt>
      <trkpt lat="51.670220" lon="5.851390">
        <ele>9.884686</ele>
        <time>2026-08-27T13:29:04.149Z</time>
      </trkpt>
      <trkpt lat="51.670270" lon="5.851480">
        <ele>9.902011</ele>
        <time>2026-08-27T13:29:05.311Z</time>
      </trkpt>
      <trkpt lat="51.670290" lon="5.851580">
        <ele>9.917076</ele>
        <time>2026-08-27T13:29:06.324Z</time>
      </trkpt>
      <trkpt lat="51.670260" lon="5.851680">
        <ele>9.933003</ele>
        <time>2026-08-27T13:29:07.403Z</time>
      </trkpt>
      <trkpt lat="51.668633" lon="5.855340">
        <ele>10.827083</ele>
        <time>2026-08-27T13:29:53.441Z</time>
      </trkpt>
      <trkpt lat="51.668638" lon="5.855503">
        <ele>10.866015</ele>
        <time>2026-08-27T13:29:55.029Z</time>
      </trkpt>
      <trkpt lat="51.668735" lon="5.855666">
        <ele>10.902082</ele>
        <time>2026-08-27T13:29:57.242Z</time>
      </trkpt>
      <trkpt lat="51.670827" lon="5.858070">
        <ele>11.108074</ele>
        <time>2026-08-27T13:30:36.031Z</time>
      </trkpt>
      <trkpt lat="51.670883" lon="5.858134">
        <ele>11.111416</ele>
        <time>2026-08-27T13:30:37.079Z</time>
      </trkpt>
      <trkpt lat="51.670910" lon="5.858168">
        <ele>11.113084</ele>
        <time>2026-08-27T13:30:37.604Z</time>
      </trkpt>
      <trkpt lat="51.670965" lon="5.858281">
        <ele>11.117422</ele>
        <time>2026-08-27T13:30:38.961Z</time>
      </trkpt>
      <trkpt lat="51.670993" lon="5.858432">
        <ele>11.122181</ele>
        <time>2026-08-27T13:30:40.443Z</time>
      </trkpt>
      <trkpt lat="51.670840" lon="5.858560">
        <ele>11.130574</ele>
        <time>2026-08-27T13:30:43.081Z</time>
      </trkpt>
      <trkpt lat="51.670720" lon="5.858730">
        <ele>11.138352</ele>
        <time>2026-08-27T13:30:45.521Z</time>
      </trkpt>
      <trkpt lat="51.670020" lon="5.859960">
        <ele>11.103324</ele>
        <time>2026-08-27T13:31:00.659Z</time>
      </trkpt>
      <trkpt lat="51.669860" lon="5.860140">
        <ele>11.088679</ele>
        <time>2026-08-27T13:31:03.444Z</time>
      </trkpt>
      <trkpt lat="51.669200" lon="5.860720">
        <ele>11.032256</ele>
        <time>2026-08-27T13:31:14.243Z</time>
      </trkpt>
      <trkpt lat="51.668790" lon="5.861130">
        <ele>11.016540</ele>
        <time>2026-08-27T13:31:21.201Z</time>
      </trkpt>
      <trkpt lat="51.667070" lon="5.863790">
        <ele>10.908560</ele>
        <time>2026-08-27T13:31:56.783Z</time>
      </trkpt>
      <trkpt lat="51.666840" lon="5.864290">
        <ele>10.869577</ele>
        <time>2026-08-27T13:32:02.193Z</time>
      </trkpt>
      <trkpt lat="51.666273" lon="5.865822">
        <ele>10.813473</ele>
        <time>2026-08-27T13:32:17.715Z</time>
      </trkpt>
      <trkpt lat="51.665068" lon="5.869007">
        <ele>10.912088</ele>
        <time>2026-08-27T13:32:52.966Z</time>
      </trkpt>
      <trkpt lat="51.663238" lon="5.873809">
        <ele>11.387744</ele>
        <time>2026-08-27T13:33:46.258Z</time>
      </trkpt>
      <trkpt lat="51.662601" lon="5.875480">
        <ele>11.618415</ele>
        <time>2026-08-27T13:34:06.046Z</time>
      </trkpt>
      <trkpt lat="51.660831" lon="5.878868">
        <ele>11.982925</ele>
        <time>2026-08-27T13:34:47.910Z</time>
      </trkpt>
      <trkpt lat="51.660543" lon="5.879412">
        <ele>12.026824</ele>
        <time>2026-08-27T13:34:54.541Z</time>
      </trkpt>
      <trkpt lat="51.659214" lon="5.882017">
        <ele>12.299991</ele>
        <time>2026-08-27T13:35:26.705Z</time>
      </trkpt>
      <trkpt lat="51.658714" lon="5.882997">
        <ele>12.387268</ele>
        <time>2026-08-27T13:35:39.085Z</time>
      </trkpt>
      <trkpt lat="51.658456" lon="5.883510">
        <ele>12.432692</ele>
        <time>2026-08-27T13:35:45.251Z</time>
      </trkpt>
      <trkpt lat="51.658791" lon="5.883891">
        <ele>12.443019</ele>
        <time>2026-08-27T13:35:53.434Z</time>
      </trkpt>
      <trkpt lat="51.658917" lon="5.883958">
        <ele>12.421082</ele>
        <time>2026-08-27T13:35:56.062Z</time>
      </trkpt>
      <trkpt lat="51.659183" lon="5.884006">
        <ele>12.376826</ele>
        <time>2026-08-27T13:36:01.277Z</time>
      </trkpt>
      <trkpt lat="51.659336" lon="5.884031">
        <ele>12.351399</ele>
        <time>2026-08-27T13:36:04.215Z</time>
      </trkpt>
      <trkpt lat="51.659270" lon="5.885353">
        <ele>12.215366</ele>
        <time>2026-08-27T13:36:19.951Z</time>
      </trkpt>
      <trkpt lat="51.659271" lon="5.885479">
        <ele>12.202442</ele>
        <time>2026-08-27T13:36:21.489Z</time>
      </trkpt>
      <trkpt lat="51.659273" lon="5.885663">
        <ele>12.183566</ele>
        <time>2026-08-27T13:36:23.760Z</time>
      </trkpt>
      <trkpt lat="51.659211" lon="5.885730">
        <ele>12.171225</ele>
        <time>2026-08-27T13:36:25.265Z</time>
      </trkpt>
      <trkpt lat="51.658749" lon="5.886762">
        <ele>12.180780</ele>
        <time>2026-08-27T13:36:41.481Z</time>
      </trkpt>
      <trkpt lat="51.658488" lon="5.886487">
        <ele>12.186560</ele>
        <time>2026-08-27T13:36:46.312Z</time>
      </trkpt>
      <trkpt lat="51.658371" lon="5.886485">
        <ele>12.188729</ele>
        <time>2026-08-27T13:36:48.152Z</time>
      </trkpt>
      <trkpt lat="51.658153" lon="5.889735">
        <ele>12.110412</ele>
        <time>2026-08-27T13:37:18.102Z</time>
      </trkpt>
      <trkpt lat="51.658091" lon="5.889832">
        <ele>12.104961</ele>
        <time>2026-08-27T13:37:19.320Z</time>
      </trkpt>
      <trkpt lat="51.658070" lon="5.890163">
        <ele>12.091938</ele>
        <time>2026-08-27T13:37:22.189Z</time>
      </trkpt>
      <trkpt lat="51.658053" lon="5.890343">
        <ele>12.084700</ele>
        <time>2026-08-27T13:37:23.759Z</time>
      </trkpt>
      <trkpt lat="51.658011" lon="5.890429">
        <ele>12.080135</ele>
        <time>2026-08-27T13:37:24.696Z</time>
      </trkpt>
      <trkpt lat="51.657994" lon="5.890545">
        <ele>12.075165</ele>
        <time>2026-08-27T13:37:25.728Z</time>
      </trkpt>
      <trkpt lat="51.658019" lon="5.890811">
        <ele>12.063945</ele>
        <time>2026-08-27T13:37:28.055Z</time>
      </trkpt>
      <trkpt lat="51.657961" lon="5.891637">
        <ele>12.029279</ele>
        <time>2026-08-27T13:37:35.248Z</time>
      </trkpt>
      <trkpt lat="51.657899" lon="5.892795">
        <ele>11.980808</ele>
        <time>2026-08-27T13:37:45.739Z</time>
      </trkpt>
      <trkpt lat="51.657919" lon="5.893421">
        <ele>12.024959</ele>
        <time>2026-08-27T13:37:51.750Z</time>
      </trkpt>
      <trkpt lat="51.657894" lon="5.893656">
        <ele>12.078912</ele>
        <time>2026-08-27T13:37:54.122Z</time>
      </trkpt>
      <trkpt lat="51.657908" lon="5.893807">
        <ele>12.113461</ele>
        <time>2026-08-27T13:37:55.662Z</time>
      </trkpt>
      <trkpt lat="51.657942" lon="5.893904">
        <ele>12.138672</ele>
        <time>2026-08-27T13:37:56.791Z</time>
      </trkpt>
      <trkpt lat="51.657969" lon="5.894438">
        <ele>12.259909</ele>
        <time>2026-08-27T13:38:02.288Z</time>
      </trkpt>
      <trkpt lat="51.657999" lon="5.894576">
        <ele>12.292998</ele>
        <time>2026-08-27T13:38:03.820Z</time>
      </trkpt>
      <trkpt lat="51.658150" lon="5.898012">
        <ele>12.900104</ele>
        <time>2026-08-27T13:38:39.576Z</time>
      </trkpt>
      <trkpt lat="51.658511" lon="5.904034">
        <ele>12.570790</ele>
        <time>2026-08-27T13:39:31.594Z</time>
      </trkpt>
      <trkpt lat="51.658522" lon="5.904510">
        <ele>12.570790</ele>
        <time>2026-08-27T13:39:35.793Z</time>
      </trkpt>
    </trkseg>
  </trk>
</gpx>